<?xml version='1.0' encoding='utf-8'?>
<gpx xmlns="http://www.topografix.com/GPX/1/1" creator="HOLUX ezTour Plus" version="1.1">
<metadata>
<link href="http://www.holux.com"><text>HOLUX Technology, Inc.</text></link>
<time>2013-11-27T20:32:58Z</time></metadata>
<trk>
<name>Holux2013/11/19_09:34</name>
<trkseg>
<trkpt lat="31.257141113" lon="34.798206329">
<ele>284.9</ele>
<time>2013-11-19T07:34:04Z</time>
<speed>0.320000</speed>
<extensions>
<speed>0.3</speed>
<temp>0.00</temp>
<bpm>0</bpm>
<rpm>0.00</rpm>
</extensions>
</trkpt>
<trkpt lat="31.257261276" lon="34.798069000">
<ele>284.9</ele>
<time>2013-11-19T07:35:44Z</time>
<speed>0.150000</speed>
<extensions>
<speed>0.2</speed>
<temp>0.00</temp>
<bpm>0</bpm>
<rpm>0.00</rpm>
</extensions>
</trkpt>
<trkpt lat="31.253593445" lon="34.798667908">
<ele>280.2</ele>
<time>2013-11-19T07:37:04Z</time>
<speed>5.800000</speed>
<extensions>
<speed>5.8</speed>
<temp>0.00</temp>
<bpm>0</bpm>
<rpm>0.00</rpm>
</extensions>
</trkpt>
<trkpt lat="31.252779007" lon="34.798549652">
<ele>280.2</ele>
<time>2013-11-19T07:37:19Z</time>
<speed>5.190000</speed>
<extensions>
<speed>5.2</speed>
<temp>0.00</temp>
<bpm>0</bpm>
<rpm>0.00</rpm>
</extensions>
</trkpt>
<trkpt lat="31.251848221" lon="34.798034668">
<ele>278.9</ele>
<time>2013-11-19T07:37:39Z</time>
<speed>5.730000</speed>
<extensions>
<speed>5.7</speed>
<temp>0.00</temp>
<bpm>0</bpm>
<rpm>0.00</rpm>
</extensions>
</trkpt>
<trkpt lat="31.251136780" lon="34.797889709">
<ele>279.1</ele>
<time>2013-11-19T07:37:54Z</time>
<speed>2.090000</speed>
<extensions>
<speed>2.1</speed>
<temp>0.00</temp>
<bpm>0</bpm>
<rpm>0.00</rpm>
</extensions>
</trkpt>
<trkpt lat="31.250730515" lon="34.799770355">
<ele>277.1</ele>
<time>2013-11-19T07:39:34Z</time>
<speed>3.510000</speed>
<extensions>
<speed>3.5</speed>
<temp>0.00</temp>
<bpm>0</bpm>
<rpm>0.00</rpm>
</extensions>
</trkpt>
<trkpt lat="31.250375748" lon="34.800651550">
<ele>277.1</ele>
<time>2013-11-19T07:40:04Z</time>
<speed>0.030000</speed>
<extensions>
<speed>0.0</speed>
<temp>0.00</temp>
<bpm>0</bpm>
<rpm>0.00</rpm>
</extensions>
</trkpt>
<trkpt lat="31.248794556" lon="34.801853180">
<ele>278.7</ele>
<time>2013-11-19T07:41:14Z</time>
<speed>3.920000</speed>
<extensions>
<speed>3.9</speed>
<temp>0.00</temp>
<bpm>0</bpm>
<rpm>0.00</rpm>
</extensions>
</trkpt>
<trkpt lat="31.247631073" lon="34.803295135">
<ele>277.7</ele>
<time>2013-11-19T07:42:09Z</time>
<speed>2.210000</speed>
<extensions>
<speed>2.2</speed>
<temp>0.00</temp>
<bpm>0</bpm>
<rpm>0.00</rpm>
</extensions>
</trkpt>
<trkpt lat="31.245119095" lon="34.804588318">
<ele>274.0</ele>
<time>2013-11-19T07:43:29Z</time>
<speed>0.020000</speed>
<extensions>
<speed>0.0</speed>
<temp>0.00</temp>
<bpm>0</bpm>
<rpm>0.00</rpm>
</extensions>
</trkpt>
<trkpt lat="31.245222092" lon="34.804927826">
<ele>274.0</ele>
<time>2013-11-19T07:44:19Z</time>
<speed>0.220000</speed>
<extensions>
<speed>0.2</speed>
<temp>0.00</temp>
<bpm>0</bpm>
<rpm>0.00</rpm>
</extensions>
</trkpt>
<trkpt lat="31.244777679" lon="34.805465698">
<ele>275.1</ele>
<time>2013-11-19T07:45:04Z</time>
<speed>4.110000</speed>
<extensions>
<speed>4.1</speed>
<temp>0.00</temp>
<bpm>0</bpm>
<rpm>0.00</rpm>
</extensions>
</trkpt>
<trkpt lat="31.244585037" lon="34.806053162">
<ele>276.0</ele>
<time>2013-11-19T07:45:19Z</time>
<speed>3.650000</speed>
<extensions>
<speed>3.7</speed>
<temp>0.00</temp>
<bpm>0</bpm>
<rpm>0.00</rpm>
</extensions>
</trkpt>
<trkpt lat="31.244514465" lon="34.808624268">
<ele>280.4</ele>
<time>2013-11-19T07:46:49Z</time>
<speed>1.280000</speed>
<extensions>
<speed>1.3</speed>
<temp>0.00</temp>
<bpm>0</bpm>
<rpm>0.00</rpm>
</extensions>
</trkpt>
<trkpt lat="31.244359970" lon="34.808738708">
<ele>279.8</ele>
<time>2013-11-19T07:47:09Z</time>
<speed>0.010000</speed>
<extensions>
<speed>0.0</speed>
<temp>0.00</temp>
<bpm>0</bpm>
<rpm>0.00</rpm>
</extensions>
</trkpt>
<trkpt lat="31.244361877" lon="34.809490204">
<ele>281.2</ele>
<time>2013-11-19T07:47:39Z</time>
<speed>3.580000</speed>
<extensions>
<speed>3.6</speed>
<temp>0.00</temp>
<bpm>0</bpm>
<rpm>0.00</rpm>
</extensions>
</trkpt>
<trkpt lat="31.244468689" lon="34.810066223">
<ele>282.4</ele>
<time>2013-11-19T07:47:54Z</time>
<speed>2.460000</speed>
<extensions>
<speed>2.5</speed>
<temp>0.00</temp>
<bpm>0</bpm>
<rpm>0.00</rpm>
</extensions>
</trkpt>
<trkpt lat="31.245330811" lon="34.811206818">
<ele>283.7</ele>
<time>2013-11-19T07:48:49Z</time>
<speed>0.820000</speed>
<extensions>
<speed>0.8</speed>
<temp>0.00</temp>
<bpm>0</bpm>
<rpm>0.00</rpm>
</extensions>
</trkpt>
<trkpt lat="31.245323181" lon="34.811721802">
<ele>284.3</ele>
<time>2013-11-19T07:49:49Z</time>
<speed>0.460000</speed>
<extensions>
<speed>0.5</speed>
<temp>0.00</temp>
<bpm>0</bpm>
<rpm>0.00</rpm>
</extensions>
</trkpt>
<trkpt lat="31.245140076" lon="34.811485291">
<ele>283.6</ele>
<time>2013-11-19T07:50:24Z</time>
<speed>1.730000</speed>
<extensions>
<speed>1.7</speed>
<temp>0.00</temp>
<bpm>0</bpm>
<rpm>0.00</rpm>
</extensions>
</trkpt>
<trkpt lat="31.245012283" lon="34.811553955">
<ele>283.8</ele>
<time>2013-11-19T07:50:29Z</time>
<speed>3.150000</speed>
<extensions>
<speed>3.2</speed>
<temp>0.00</temp>
<bpm>0</bpm>
<rpm>0.00</rpm>
</extensions>
</trkpt>
<trkpt lat="31.244871140" lon="34.811679840">
<ele>284.2</ele>
<time>2013-11-19T07:50:34Z</time>
<speed>3.020000</speed>
<extensions>
<speed>3.0</speed>
<temp>0.00</temp>
<bpm>0</bpm>
<rpm>0.00</rpm>
</extensions>
</trkpt>
<trkpt lat="31.244939804" lon="34.811992645">
<ele>285.5</ele>
<time>2013-11-19T07:50:49Z</time>
<speed>2.100000</speed>
<extensions>
<speed>2.1</speed>
<temp>0.00</temp>
<bpm>0</bpm>
<rpm>0.00</rpm>
</extensions>
</trkpt>
<trkpt lat="31.244533539" lon="34.812076569">
<ele>286.4</ele>
<time>2013-11-19T07:51:04Z</time>
<speed>1.890000</speed>
<extensions>
<speed>1.9</speed>
<temp>0.00</temp>
<bpm>0</bpm>
<rpm>0.00</rpm>
</extensions>
</trkpt>
<trkpt lat="31.244186401" lon="34.812549591">
<ele>284.9</ele>
<time>2013-11-19T07:51:24Z</time>
<speed>3.420000</speed>
<extensions>
<speed>3.4</speed>
<temp>0.00</temp>
<bpm>0</bpm>
<rpm>0.00</rpm>
</extensions>
</trkpt>
<trkpt lat="31.243831635" lon="34.812419891">
<ele>285.6</ele>
<time>2013-11-19T07:51:34Z</time>
<speed>4.600000</speed>
<extensions>
<speed>4.6</speed>
<temp>0.00</temp>
<bpm>0</bpm>
<rpm>0.00</rpm>
</extensions>
</trkpt>
<trkpt lat="31.243801117" lon="34.812103271">
<ele>284.0</ele>
<time>2013-11-19T07:51:44Z</time>
<speed>3.390000</speed>
<extensions>
<speed>3.4</speed>
<temp>0.00</temp>
<bpm>0</bpm>
<rpm>0.00</rpm>
</extensions>
</trkpt>
<trkpt lat="31.243658066" lon="34.812000275">
<ele>284.3</ele>
<time>2013-11-19T07:51:49Z</time>
<speed>3.060000</speed>
<extensions>
<speed>3.1</speed>
<temp>0.00</temp>
<bpm>0</bpm>
<rpm>0.00</rpm>
</extensions>
</trkpt>
<trkpt lat="31.243406296" lon="34.812324524">
<ele>286.5</ele>
<time>2013-11-19T07:54:24Z</time>
<speed>0.370000</speed>
<extensions>
<speed>0.4</speed>
<temp>0.00</temp>
<bpm>0</bpm>
<rpm>0.00</rpm>
</extensions>
</trkpt>
<trkpt lat="31.243581772" lon="34.812347412">
<ele>286.8</ele>
<time>2013-11-19T07:55:04Z</time>
<speed>0.250000</speed>
<extensions>
<speed>0.2</speed>
<temp>0.00</temp>
<bpm>0</bpm>
<rpm>0.00</rpm>
</extensions>
</trkpt>
<trkpt lat="31.243381500" lon="34.812042236">
<ele>285.5</ele>
<time>2013-11-19T08:04:09Z</time>
<speed>0.010000</speed>
<extensions>
<speed>0.0</speed>
<temp>0.00</temp>
<bpm>0</bpm>
<rpm>0.00</rpm>
</extensions>
</trkpt>
<trkpt lat="31.244937897" lon="34.811767578">
<ele>284.3</ele>
<time>2013-11-19T08:05:19Z</time>
<speed>0.030000</speed>
<extensions>
<speed>0.0</speed>
<temp>0.00</temp>
<bpm>0</bpm>
<rpm>0.00</rpm>
</extensions>
</trkpt>
<trkpt lat="31.244331360" lon="34.810363770">
<ele>282.8</ele>
<time>2013-11-19T08:06:34Z</time>
<speed>1.460000</speed>
<extensions>
<speed>1.5</speed>
<temp>0.00</temp>
<bpm>0</bpm>
<rpm>0.00</rpm>
</extensions>
</trkpt>
<trkpt lat="31.244230270" lon="34.809509277">
<ele>281.2</ele>
<time>2013-11-19T08:06:59Z</time>
<speed>2.520000</speed>
<extensions>
<speed>2.5</speed>
<temp>0.00</temp>
<bpm>0</bpm>
<rpm>0.00</rpm>
</extensions>
</trkpt>
<trkpt lat="31.244260788" lon="34.809082031">
<ele>280.3</ele>
<time>2013-11-19T08:07:19Z</time>
<speed>1.270000</speed>
<extensions>
<speed>1.3</speed>
<temp>0.00</temp>
<bpm>0</bpm>
<rpm>0.00</rpm>
</extensions>
</trkpt>
<trkpt lat="31.244388580" lon="34.809020996">
<ele>280.2</ele>
<time>2013-11-19T08:07:24Z</time>
<speed>2.930000</speed>
<extensions>
<speed>2.9</speed>
<temp>0.00</temp>
<bpm>0</bpm>
<rpm>0.00</rpm>
</extensions>
</trkpt>
<trkpt lat="31.244192123" lon="34.808898926">
<ele>280.4</ele>
<time>2013-11-19T08:07:29Z</time>
<speed>0.840000</speed>
<extensions>
<speed>0.8</speed>
<temp>0.00</temp>
<bpm>0</bpm>
<rpm>0.00</rpm>
</extensions>
</trkpt>
<trkpt lat="31.244342804" lon="34.808895111">
<ele>280.0</ele>
<time>2013-11-19T08:07:54Z</time>
<speed>0.030000</speed>
<extensions>
<speed>0.0</speed>
<temp>0.00</temp>
<bpm>0</bpm>
<rpm>0.00</rpm>
</extensions>
</trkpt>
<trkpt lat="31.244607925" lon="34.807193756">
<ele>277.4</ele>
<time>2013-11-19T08:08:39Z</time>
<speed>6.830000</speed>
<extensions>
<speed>6.8</speed>
<temp>0.00</temp>
<bpm>0</bpm>
<rpm>0.00</rpm>
</extensions>
</trkpt>
<trkpt lat="31.244571686" lon="34.806472778">
<ele>276.6</ele>
<time>2013-11-19T08:08:49Z</time>
<speed>7.360000</speed>
<extensions>
<speed>7.4</speed>
<temp>0.00</temp>
<bpm>0</bpm>
<rpm>0.00</rpm>
</extensions>
</trkpt>
<trkpt lat="31.244844437" lon="34.805389404">
<ele>274.6</ele>
<time>2013-11-19T08:09:04Z</time>
<speed>3.460000</speed>
<extensions>
<speed>3.5</speed>
<temp>0.00</temp>
<bpm>0</bpm>
<rpm>0.00</rpm>
</extensions>
</trkpt>
<trkpt lat="31.245353699" lon="34.804855347">
<ele>274.0</ele>
<time>2013-11-19T08:09:24Z</time>
<speed>6.290000</speed>
<extensions>
<speed>6.3</speed>
<temp>0.00</temp>
<bpm>0</bpm>
<rpm>0.00</rpm>
</extensions>
</trkpt>
<trkpt lat="31.247524261" lon="34.803520203">
<ele>276.7</ele>
<time>2013-11-19T08:10:19Z</time>
<speed>4.650000</speed>
<extensions>
<speed>4.6</speed>
<temp>0.00</temp>
<bpm>0</bpm>
<rpm>0.00</rpm>
</extensions>
</trkpt>
<trkpt lat="31.247779846" lon="34.803066254">
<ele>277.5</ele>
<time>2013-11-19T08:13:09Z</time>
<speed>2.260000</speed>
<extensions>
<speed>2.3</speed>
<temp>0.00</temp>
<bpm>0</bpm>
<rpm>0.00</rpm>
</extensions>
</trkpt>
<trkpt lat="31.247753143" lon="34.803462982">
<ele>277.8</ele>
<time>2013-11-19T08:13:24Z</time>
<speed>1.830000</speed>
<extensions>
<speed>1.8</speed>
<temp>0.00</temp>
<bpm>0</bpm>
<rpm>0.00</rpm>
</extensions>
</trkpt>
<trkpt lat="31.246847153" lon="34.803939819">
<ele>280.4</ele>
<time>2013-11-19T08:14:14Z</time>
<speed>5.900000</speed>
<extensions>
<speed>5.9</speed>
<temp>0.00</temp>
<bpm>0</bpm>
<rpm>0.00</rpm>
</extensions>
</trkpt>
<trkpt lat="31.245132446" lon="34.804378510">
<ele>273.2</ele>
<time>2013-11-19T08:14:54Z</time>
<speed>4.080000</speed>
<extensions>
<speed>4.1</speed>
<temp>0.00</temp>
<bpm>0</bpm>
<rpm>0.00</rpm>
</extensions>
</trkpt>
<trkpt lat="31.244571686" lon="34.803699493">
<ele>271.5</ele>
<time>2013-11-19T08:15:09Z</time>
<speed>6.380000</speed>
<extensions>
<speed>6.4</speed>
<temp>0.00</temp>
<bpm>0</bpm>
<rpm>0.00</rpm>
</extensions>
</trkpt>
<trkpt lat="31.244358063" lon="34.803642273">
<ele>271.9</ele>
<time>2013-11-19T08:15:14Z</time>
<speed>6.280000</speed>
<extensions>
<speed>6.3</speed>
<temp>0.00</temp>
<bpm>0</bpm>
<rpm>0.00</rpm>
</extensions>
</trkpt>
<trkpt lat="31.244016647" lon="34.803089142">
<ele>271.0</ele>
<time>2013-11-19T08:15:24Z</time>
<speed>6.070000</speed>
<extensions>
<speed>6.1</speed>
<temp>0.00</temp>
<bpm>0</bpm>
<rpm>0.00</rpm>
</extensions>
</trkpt>
<trkpt lat="31.243499756" lon="34.802921295">
<ele>270.5</ele>
<time>2013-11-19T08:15:34Z</time>
<speed>5.650000</speed>
<extensions>
<speed>5.7</speed>
<temp>0.00</temp>
<bpm>0</bpm>
<rpm>0.00</rpm>
</extensions>
</trkpt>
<trkpt lat="31.241432190" lon="34.801292419">
<ele>267.1</ele>
<time>2013-11-19T08:16:39Z</time>
<speed>5.380000</speed>
<extensions>
<speed>5.4</speed>
<temp>0.00</temp>
<bpm>0</bpm>
<rpm>0.00</rpm>
</extensions>
</trkpt>
<trkpt lat="31.240447998" lon="34.799995422">
<ele>266.5</ele>
<time>2013-11-19T08:17:29Z</time>
<speed>6.380000</speed>
<extensions>
<speed>6.4</speed>
<temp>0.00</temp>
<bpm>0</bpm>
<rpm>0.00</rpm>
</extensions>
</trkpt>
<trkpt lat="31.239509583" lon="34.797096252">
<ele>262.9</ele>
<time>2013-11-19T08:18:09Z</time>
<speed>7.730000</speed>
<extensions>
<speed>7.7</speed>
<temp>0.00</temp>
<bpm>0</bpm>
<rpm>0.00</rpm>
</extensions>
</trkpt>
<trkpt lat="31.238853455" lon="34.795932770">
<ele>261.9</ele>
<time>2013-11-19T08:18:29Z</time>
<speed>6.940000</speed>
<extensions>
<speed>6.9</speed>
<temp>0.00</temp>
<bpm>0</bpm>
<rpm>0.00</rpm>
</extensions>
</trkpt>
<trkpt lat="31.238265991" lon="34.794326782">
<ele>262.0</ele>
<time>2013-11-19T08:19:34Z</time>
<speed>0.060000</speed>
<extensions>
<speed>0.1</speed>
<temp>0.00</temp>
<bpm>0</bpm>
<rpm>0.00</rpm>
</extensions>
</trkpt>
<trkpt lat="31.239362717" lon="34.797592163">
<ele>261.9</ele>
<time>2013-11-19T08:24:19Z</time>
<speed>0.020000</speed>
<extensions>
<speed>0.0</speed>
<temp>0.00</temp>
<bpm>0</bpm>
<rpm>0.00</rpm>
</extensions>
</trkpt>
<trkpt lat="31.237180710" lon="34.798431396">
<ele>263.1</ele>
<time>2013-11-19T08:25:54Z</time>
<speed>4.400000</speed>
<extensions>
<speed>4.4</speed>
<temp>0.00</temp>
<bpm>0</bpm>
<rpm>0.00</rpm>
</extensions>
</trkpt>
<trkpt lat="31.236522675" lon="34.798866272">
<ele>262.2</ele>
<time>2013-11-19T08:26:49Z</time>
<speed>2.450000</speed>
<extensions>
<speed>2.4</speed>
<temp>0.00</temp>
<bpm>0</bpm>
<rpm>0.00</rpm>
</extensions>
</trkpt>
<trkpt lat="31.235527039" lon="34.800144196">
<ele>263.0</ele>
<time>2013-11-19T08:27:29Z</time>
<speed>3.120000</speed>
<extensions>
<speed>3.1</speed>
<temp>0.00</temp>
<bpm>0</bpm>
<rpm>0.00</rpm>
</extensions>
</trkpt>
<trkpt lat="31.233701706" lon="34.801254272">
<ele>260.4</ele>
<time>2013-11-19T08:28:54Z</time>
<speed>3.110000</speed>
<extensions>
<speed>3.1</speed>
<temp>0.00</temp>
<bpm>0</bpm>
<rpm>0.00</rpm>
</extensions>
</trkpt>
<trkpt lat="31.231800079" lon="34.802143097">
<ele>266.1</ele>
<time>2013-11-19T08:29:39Z</time>
<speed>5.220000</speed>
<extensions>
<speed>5.2</speed>
<temp>0.00</temp>
<bpm>0</bpm>
<rpm>0.00</rpm>
</extensions>
</trkpt>
<trkpt lat="31.230684280" lon="34.802398682">
<ele>267.2</ele>
<time>2013-11-19T08:30:09Z</time>
<speed>0.530000</speed>
<extensions>
<speed>0.5</speed>
<temp>0.00</temp>
<bpm>0</bpm>
<rpm>0.00</rpm>
</extensions>
</trkpt>
<trkpt lat="31.230226517" lon="34.800010681">
<ele>265.0</ele>
<time>2013-11-19T08:33:44Z</time>
<speed>6.400000</speed>
<extensions>
<speed>6.4</speed>
<temp>0.00</temp>
<bpm>0</bpm>
<rpm>0.00</rpm>
</extensions>
</trkpt>
<trkpt lat="31.230289459" lon="34.799373627">
<ele>264.6</ele>
<time>2013-11-19T08:33:54Z</time>
<speed>6.600000</speed>
<extensions>
<speed>6.6</speed>
<temp>0.00</temp>
<bpm>0</bpm>
<rpm>0.00</rpm>
</extensions>
</trkpt>
<trkpt lat="31.230108261" lon="34.797771454">
<ele>264.0</ele>
<time>2013-11-19T08:34:19Z</time>
<speed>3.440000</speed>
<extensions>
<speed>3.4</speed>
<temp>0.00</temp>
<bpm>0</bpm>
<rpm>0.00</rpm>
</extensions>
</trkpt>
<trkpt lat="31.230819702" lon="34.797225952">
<ele>264.3</ele>
<time>2013-11-19T08:35:44Z</time>
<speed>0.110000</speed>
<extensions>
<speed>0.1</speed>
<temp>0.00</temp>
<bpm>0</bpm>
<rpm>0.00</rpm>
</extensions>
</trkpt>
<trkpt lat="31.230823517" lon="34.796894073">
<ele>264.4</ele>
<time>2013-11-19T08:35:59Z</time>
<speed>4.030000</speed>
<extensions>
<speed>4.0</speed>
<temp>0.00</temp>
<bpm>0</bpm>
<rpm>0.00</rpm>
</extensions>
</trkpt>
<trkpt lat="31.230062485" lon="34.795284271">
<ele>264.2</ele>
<time>2013-11-19T08:36:39Z</time>
<speed>1.660000</speed>
<extensions>
<speed>1.7</speed>
<temp>0.00</temp>
<bpm>0</bpm>
<rpm>0.00</rpm>
</extensions>
</trkpt>
<trkpt lat="31.231744766" lon="34.794727325">
<ele>263.1</ele>
<time>2013-11-19T08:37:24Z</time>
<speed>2.800000</speed>
<extensions>
<speed>2.8</speed>
<temp>0.00</temp>
<bpm>0</bpm>
<rpm>0.00</rpm>
</extensions>
</trkpt>
<trkpt lat="31.231740952" lon="34.793853760">
<ele>262.4</ele>
<time>2013-11-19T08:37:44Z</time>
<speed>3.690000</speed>
<extensions>
<speed>3.7</speed>
<temp>0.00</temp>
<bpm>0</bpm>
<rpm>0.00</rpm>
</extensions>
</trkpt>
<trkpt lat="31.232091904" lon="34.793704987">
<ele>261.5</ele>
<time>2013-11-19T08:37:54Z</time>
<speed>4.940000</speed>
<extensions>
<speed>4.9</speed>
<temp>0.00</temp>
<bpm>0</bpm>
<rpm>0.00</rpm>
</extensions>
</trkpt>
<trkpt lat="31.232175827" lon="34.793441772">
<ele>261.3</ele>
<time>2013-11-19T08:37:59Z</time>
<speed>5.470000</speed>
<extensions>
<speed>5.5</speed>
<temp>0.00</temp>
<bpm>0</bpm>
<rpm>0.00</rpm>
</extensions>
</trkpt>
<trkpt lat="31.232149124" lon="34.791324615">
<ele>259.0</ele>
<time>2013-11-19T08:38:34Z</time>
<speed>4.330000</speed>
<extensions>
<speed>4.3</speed>
<temp>0.00</temp>
<bpm>0</bpm>
<rpm>0.00</rpm>
</extensions>
</trkpt>
<trkpt lat="31.233131409" lon="34.791271210">
<ele>256.8</ele>
<time>2013-11-19T08:39:49Z</time>
<speed>0.980000</speed>
<extensions>
<speed>1.0</speed>
<temp>0.00</temp>
<bpm>0</bpm>
<rpm>0.00</rpm>
</extensions>
</trkpt>
<trkpt lat="31.231863022" lon="34.791152954">
<ele>259.5</ele>
<time>2013-11-19T08:40:59Z</time>
<speed>1.820000</speed>
<extensions>
<speed>1.8</speed>
<temp>0.00</temp>
<bpm>0</bpm>
<rpm>0.00</rpm>
</extensions>
</trkpt>
<trkpt lat="31.230306625" lon="34.791427612">
<ele>261.8</ele>
<time>2013-11-19T08:42:14Z</time>
<speed>2.230000</speed>
<extensions>
<speed>2.2</speed>
<temp>0.00</temp>
<bpm>0</bpm>
<rpm>0.00</rpm>
</extensions>
</trkpt>
<trkpt lat="31.229038239" lon="34.792034149">
<ele>261.6</ele>
<time>2013-11-19T08:42:59Z</time>
<speed>2.980000</speed>
<extensions>
<speed>3.0</speed>
<temp>0.00</temp>
<bpm>0</bpm>
<rpm>0.00</rpm>
</extensions>
</trkpt>
<trkpt lat="31.228353500" lon="34.792156219">
<ele>261.6</ele>
<time>2013-11-19T08:43:29Z</time>
<speed>2.230000</speed>
<extensions>
<speed>2.2</speed>
<temp>0.00</temp>
<bpm>0</bpm>
<rpm>0.00</rpm>
</extensions>
</trkpt>
<trkpt lat="31.228206635" lon="34.792369843">
<ele>260.7</ele>
<time>2013-11-19T08:43:39Z</time>
<speed>3.160000</speed>
<extensions>
<speed>3.2</speed>
<temp>0.00</temp>
<bpm>0</bpm>
<rpm>0.00</rpm>
</extensions>
</trkpt>
<trkpt lat="31.228246689" lon="34.793029785">
<ele>262.2</ele>
<time>2013-11-19T08:44:04Z</time>
<speed>2.300000</speed>
<extensions>
<speed>2.3</speed>
<temp>0.00</temp>
<bpm>0</bpm>
<rpm>0.00</rpm>
</extensions>
</trkpt>
<trkpt lat="31.228269577" lon="34.792289734">
<ele>261.1</ele>
<time>2013-11-19T08:44:34Z</time>
<speed>3.110000</speed>
<extensions>
<speed>3.1</speed>
<temp>0.00</temp>
<bpm>0</bpm>
<rpm>0.00</rpm>
</extensions>
</trkpt>
<trkpt lat="31.227745056" lon="34.790733337">
<ele>253.8</ele>
<time>2013-11-19T08:45:09Z</time>
<speed>1.470000</speed>
<extensions>
<speed>1.5</speed>
<temp>0.00</temp>
<bpm>0</bpm>
<rpm>0.00</rpm>
</extensions>
</trkpt>
<trkpt lat="31.227531433" lon="34.791782379">
<ele>254.9</ele>
<time>2013-11-19T08:45:39Z</time>
<speed>4.520000</speed>
<extensions>
<speed>4.5</speed>
<temp>0.00</temp>
<bpm>0</bpm>
<rpm>0.00</rpm>
</extensions>
</trkpt>
<trkpt lat="31.227302551" lon="34.796241760">
<ele>257.0</ele>
<time>2013-11-19T08:47:14Z</time>
<speed>4.900000</speed>
<extensions>
<speed>4.9</speed>
<temp>0.00</temp>
<bpm>0</bpm>
<rpm>0.00</rpm>
</extensions>
</trkpt>
<trkpt lat="31.227344513" lon="34.797279358">
<ele>257.0</ele>
<time>2013-11-19T08:47:49Z</time>
<speed>1.560000</speed>
<extensions>
<speed>1.6</speed>
<temp>0.00</temp>
<bpm>0</bpm>
<rpm>0.00</rpm>
</extensions>
</trkpt>
<trkpt lat="31.227630615" lon="34.797519684">
<ele>258.1</ele>
<time>2013-11-19T08:48:09Z</time>
<speed>1.110000</speed>
<extensions>
<speed>1.1</speed>
<temp>0.00</temp>
<bpm>0</bpm>
<rpm>0.00</rpm>
</extensions>
</trkpt>
<trkpt lat="31.225559235" lon="34.797790527">
<ele>263.4</ele>
<time>2013-11-19T08:48:59Z</time>
<speed>3.760000</speed>
<extensions>
<speed>3.8</speed>
<temp>0.00</temp>
<bpm>0</bpm>
<rpm>0.00</rpm>
</extensions>
</trkpt>
<trkpt lat="31.223501205" lon="34.798564911">
<ele>268.7</ele>
<time>2013-11-19T08:49:54Z</time>
<speed>2.240000</speed>
<extensions>
<speed>2.2</speed>
<temp>0.00</temp>
<bpm>0</bpm>
<rpm>0.00</rpm>
</extensions>
</trkpt>
<trkpt lat="31.223289490" lon="34.798732758">
<ele>269.6</ele>
<time>2013-11-19T08:50:09Z</time>
<speed>1.560000</speed>
<extensions>
<speed>1.6</speed>
<temp>0.00</temp>
<bpm>0</bpm>
<rpm>0.00</rpm>
</extensions>
</trkpt>
<trkpt lat="31.223598480" lon="34.799896240">
<ele>271.0</ele>
<time>2013-11-19T08:51:04Z</time>
<speed>2.410000</speed>
<extensions>
<speed>2.4</speed>
<temp>0.00</temp>
<bpm>0</bpm>
<rpm>0.00</rpm>
</extensions>
</trkpt>
<trkpt lat="31.221357346" lon="34.800582886">
<ele>274.6</ele>
<time>2013-11-19T08:52:04Z</time>
<speed>4.500000</speed>
<extensions>
<speed>4.5</speed>
<temp>0.00</temp>
<bpm>0</bpm>
<rpm>0.00</rpm>
</extensions>
</trkpt>
<trkpt lat="31.221044540" lon="34.800830841">
<ele>272.8</ele>
<time>2013-11-19T08:52:14Z</time>
<speed>3.810000</speed>
<extensions>
<speed>3.8</speed>
<temp>0.00</temp>
<bpm>0</bpm>
<rpm>0.00</rpm>
</extensions>
</trkpt>
<trkpt lat="31.221187592" lon="34.801380157">
<ele>273.0</ele>
<time>2013-11-19T08:52:24Z</time>
<speed>4.660000</speed>
<extensions>
<speed>4.7</speed>
<temp>0.00</temp>
<bpm>0</bpm>
<rpm>0.00</rpm>
</extensions>
</trkpt>
<trkpt lat="31.221076965" lon="34.801551819">
<ele>273.5</ele>
<time>2013-11-19T08:52:29Z</time>
<speed>5.070000</speed>
<extensions>
<speed>5.1</speed>
<temp>0.00</temp>
<bpm>0</bpm>
<rpm>0.00</rpm>
</extensions>
</trkpt>
<trkpt lat="31.220109940" lon="34.801773071">
<ele>275.0</ele>
<time>2013-11-19T08:52:54Z</time>
<speed>3.070000</speed>
<extensions>
<speed>3.1</speed>
<temp>0.00</temp>
<bpm>0</bpm>
<rpm>0.00</rpm>
</extensions>
</trkpt>
<trkpt lat="31.220155716" lon="34.804492950">
<ele>275.5</ele>
<time>2013-11-19T08:54:39Z</time>
<speed>0.010000</speed>
<extensions>
<speed>0.0</speed>
<temp>0.00</temp>
<bpm>0</bpm>
<rpm>0.00</rpm>
</extensions>
</trkpt>
<trkpt lat="31.221517563" lon="34.804367065">
<ele>273.3</ele>
<time>2013-11-19T09:03:19Z</time>
<speed>2.780000</speed>
<extensions>
<speed>2.8</speed>
<temp>0.00</temp>
<bpm>0</bpm>
<rpm>0.00</rpm>
</extensions>
</trkpt>
<trkpt lat="31.221786499" lon="34.804008484">
<ele>273.2</ele>
<time>2013-11-19T09:03:39Z</time>
<speed>1.840000</speed>
<extensions>
<speed>1.8</speed>
<temp>0.00</temp>
<bpm>0</bpm>
<rpm>0.00</rpm>
</extensions>
</trkpt>
<trkpt lat="31.222682953" lon="34.803810120">
<ele>272.2</ele>
<time>2013-11-19T09:04:09Z</time>
<speed>2.240000</speed>
<extensions>
<speed>2.2</speed>
<temp>0.00</temp>
<bpm>0</bpm>
<rpm>0.00</rpm>
</extensions>
</trkpt>
<trkpt lat="31.222579956" lon="34.803459167">
<ele>275.1</ele>
<time>2013-11-19T09:04:44Z</time>
<speed>0.370000</speed>
<extensions>
<speed>0.4</speed>
<temp>0.00</temp>
<bpm>0</bpm>
<rpm>0.00</rpm>
</extensions>
</trkpt>
<trkpt lat="31.222354889" lon="34.803779602">
<ele>274.1</ele>
<time>2013-11-19T09:05:29Z</time>
<speed>0.510000</speed>
<extensions>
<speed>0.5</speed>
<temp>0.00</temp>
<bpm>0</bpm>
<rpm>0.00</rpm>
</extensions>
</trkpt>
<trkpt lat="31.221059799" lon="34.804061890">
<ele>273.5</ele>
<time>2013-11-19T09:06:34Z</time>
<speed>2.280000</speed>
<extensions>
<speed>2.3</speed>
<temp>0.00</temp>
<bpm>0</bpm>
<rpm>0.00</rpm>
</extensions>
</trkpt>
<trkpt lat="31.220819473" lon="34.803031921">
<ele>273.7</ele>
<time>2013-11-19T09:07:09Z</time>
<speed>2.340000</speed>
<extensions>
<speed>2.3</speed>
<temp>0.00</temp>
<bpm>0</bpm>
<rpm>0.00</rpm>
</extensions>
</trkpt>
<trkpt lat="31.220254898" lon="34.803001404">
<ele>275.1</ele>
<time>2013-11-19T09:07:24Z</time>
<speed>4.160000</speed>
<extensions>
<speed>4.2</speed>
<temp>0.00</temp>
<bpm>0</bpm>
<rpm>0.00</rpm>
</extensions>
</trkpt>
<trkpt lat="31.220134735" lon="34.804496765">
<ele>275.6</ele>
<time>2013-11-19T09:07:59Z</time>
<speed>2.920000</speed>
<extensions>
<speed>2.9</speed>
<temp>0.00</temp>
<bpm>0</bpm>
<rpm>0.00</rpm>
</extensions>
</trkpt>
<trkpt lat="31.218439102" lon="34.804901123">
<ele>276.4</ele>
<time>2013-11-19T09:08:54Z</time>
<speed>5.380000</speed>
<extensions>
<speed>5.4</speed>
<temp>0.00</temp>
<bpm>0</bpm>
<rpm>0.00</rpm>
</extensions>
</trkpt>
<trkpt lat="31.217384338" lon="34.804813385">
<ele>277.3</ele>
<time>2013-11-19T09:09:14Z</time>
<speed>6.330000</speed>
<extensions>
<speed>6.3</speed>
<temp>0.00</temp>
<bpm>0</bpm>
<rpm>0.00</rpm>
</extensions>
</trkpt>
<trkpt lat="31.216213226" lon="34.804473877">
<ele>276.9</ele>
<time>2013-11-19T09:09:34Z</time>
<speed>6.910000</speed>
<extensions>
<speed>6.9</speed>
<temp>0.00</temp>
<bpm>0</bpm>
<rpm>0.00</rpm>
</extensions>
</trkpt>
<trkpt lat="31.213552475" lon="34.802700043">
<ele>282.2</ele>
<time>2013-11-19T09:10:29Z</time>
<speed>6.290000</speed>
<extensions>
<speed>6.3</speed>
<temp>0.00</temp>
<bpm>0</bpm>
<rpm>0.00</rpm>
</extensions>
</trkpt>
<trkpt lat="31.212684631" lon="34.802307129">
<ele>284.1</ele>
<time>2013-11-19T09:10:49Z</time>
<speed>4.870000</speed>
<extensions>
<speed>4.9</speed>
<temp>0.00</temp>
<bpm>0</bpm>
<rpm>0.00</rpm>
</extensions>
</trkpt>
<trkpt lat="31.211099625" lon="34.801853180">
<ele>286.4</ele>
<time>2013-11-19T09:11:19Z</time>
<speed>6.290000</speed>
<extensions>
<speed>6.3</speed>
<temp>0.00</temp>
<bpm>0</bpm>
<rpm>0.00</rpm>
</extensions>
</trkpt>
<trkpt lat="31.210052490" lon="34.801776886">
<ele>286.8</ele>
<time>2013-11-19T09:11:39Z</time>
<speed>5.210000</speed>
<extensions>
<speed>5.2</speed>
<temp>0.00</temp>
<bpm>0</bpm>
<rpm>0.00</rpm>
</extensions>
</trkpt>
<trkpt lat="31.208333969" lon="34.801963806">
<ele>289.6</ele>
<time>2013-11-19T09:12:49Z</time>
<speed>0.050000</speed>
<extensions>
<speed>0.1</speed>
<temp>0.00</temp>
<bpm>0</bpm>
<rpm>0.00</rpm>
</extensions>
</trkpt>
<trkpt lat="31.208379745" lon="34.802089691">
<ele>288.5</ele>
<time>2013-11-19T09:22:29Z</time>
<speed>0.010000</speed>
<extensions>
<speed>0.0</speed>
<temp>0.00</temp>
<bpm>0</bpm>
<rpm>0.00</rpm>
</extensions>
</trkpt>
<trkpt lat="31.206081390" lon="34.802242279">
<ele>290.9</ele>
<time>2013-11-19T09:26:04Z</time>
<speed>3.980000</speed>
<extensions>
<speed>4.0</speed>
<temp>0.00</temp>
<bpm>0</bpm>
<rpm>0.00</rpm>
</extensions>
</trkpt>
<trkpt lat="31.206010818" lon="34.801979065">
<ele>291.4</ele>
<time>2013-11-19T09:26:29Z</time>
<speed>1.690000</speed>
<extensions>
<speed>1.7</speed>
<temp>0.00</temp>
<bpm>0</bpm>
<rpm>0.00</rpm>
</extensions>
</trkpt>
<trkpt lat="31.202772141" lon="34.802112579">
<ele>298.0</ele>
<time>2013-11-19T09:27:59Z</time>
<speed>3.320000</speed>
<extensions>
<speed>3.3</speed>
<temp>0.00</temp>
<bpm>0</bpm>
<rpm>0.00</rpm>
</extensions>
</trkpt>
<trkpt lat="31.200237274" lon="34.802635193">
<ele>304.4</ele>
<time>2013-11-19T09:29:09Z</time>
<speed>2.920000</speed>
<extensions>
<speed>2.9</speed>
<temp>0.00</temp>
<bpm>0</bpm>
<rpm>0.00</rpm>
</extensions>
</trkpt>
<trkpt lat="31.197881699" lon="34.802902222">
<ele>305.8</ele>
<time>2013-11-19T09:30:09Z</time>
<speed>7.410000</speed>
<extensions>
<speed>7.4</speed>
<temp>0.00</temp>
<bpm>0</bpm>
<rpm>0.00</rpm>
</extensions>
</trkpt>
<trkpt lat="31.193021774" lon="34.804500580">
<ele>304.4</ele>
<time>2013-11-19T09:32:44Z</time>
<speed>3.400000</speed>
<extensions>
<speed>3.4</speed>
<temp>0.00</temp>
<bpm>0</bpm>
<rpm>0.00</rpm>
</extensions>
</trkpt>
<trkpt lat="31.192178726" lon="34.804954529">
<ele>304.9</ele>
<time>2013-11-19T09:33:09Z</time>
<speed>5.340000</speed>
<extensions>
<speed>5.3</speed>
<temp>0.00</temp>
<bpm>0</bpm>
<rpm>0.00</rpm>
</extensions>
</trkpt>
<trkpt lat="31.190849304" lon="34.805065155">
<ele>306.5</ele>
<time>2013-11-19T09:33:34Z</time>
<speed>5.110000</speed>
<extensions>
<speed>5.1</speed>
<temp>0.00</temp>
<bpm>0</bpm>
<rpm>0.00</rpm>
</extensions>
</trkpt>
<trkpt lat="31.186695099" lon="34.806564331">
<ele>312.2</ele>
<time>2013-11-19T09:35:24Z</time>
<speed>4.340000</speed>
<extensions>
<speed>4.3</speed>
<temp>0.00</temp>
<bpm>0</bpm>
<rpm>0.00</rpm>
</extensions>
</trkpt>
<trkpt lat="31.185558319" lon="34.806613922">
<ele>317.7</ele>
<time>2013-11-19T09:35:59Z</time>
<speed>3.600000</speed>
<extensions>
<speed>3.6</speed>
<temp>0.00</temp>
<bpm>0</bpm>
<rpm>0.00</rpm>
</extensions>
</trkpt>
<trkpt lat="31.184314728" lon="34.805557251">
<ele>329.1</ele>
<time>2013-11-19T09:36:44Z</time>
<speed>4.590000</speed>
<extensions>
<speed>4.6</speed>
<temp>0.00</temp>
<bpm>0</bpm>
<rpm>0.00</rpm>
</extensions>
</trkpt>
<trkpt lat="31.184127808" lon="34.805568695">
<ele>325.8</ele>
<time>2013-11-19T09:36:49Z</time>
<speed>5.120000</speed>
<extensions>
<speed>5.1</speed>
<temp>0.00</temp>
<bpm>0</bpm>
<rpm>0.00</rpm>
</extensions>
</trkpt>
<trkpt lat="31.182798386" lon="34.806686401">
<ele>318.9</ele>
<time>2013-11-19T09:37:19Z</time>
<speed>5.300000</speed>
<extensions>
<speed>5.3</speed>
<temp>0.00</temp>
<bpm>0</bpm>
<rpm>0.00</rpm>
</extensions>
</trkpt>
<trkpt lat="31.178443909" lon="34.806987762">
<ele>321.6</ele>
<time>2013-11-19T09:38:39Z</time>
<speed>6.410000</speed>
<extensions>
<speed>6.4</speed>
<temp>0.00</temp>
<bpm>0</bpm>
<rpm>0.00</rpm>
</extensions>
</trkpt>
<trkpt lat="31.176828384" lon="34.806808472">
<ele>323.1</ele>
<time>2013-11-19T09:39:29Z</time>
<speed>5.060000</speed>
<extensions>
<speed>5.1</speed>
<temp>0.00</temp>
<bpm>0</bpm>
<rpm>0.00</rpm>
</extensions>
</trkpt>
<trkpt lat="31.171178818" lon="34.805454254">
<ele>327.8</ele>
<time>2013-11-19T09:41:09Z</time>
<speed>6.490000</speed>
<extensions>
<speed>6.5</speed>
<temp>0.00</temp>
<bpm>0</bpm>
<rpm>0.00</rpm>
</extensions>
</trkpt>
<trkpt lat="31.164634705" lon="34.803562164">
<ele>335.6</ele>
<time>2013-11-19T09:43:19Z</time>
<speed>6.340000</speed>
<extensions>
<speed>6.3</speed>
<temp>0.00</temp>
<bpm>0</bpm>
<rpm>0.00</rpm>
</extensions>
</trkpt>
<trkpt lat="31.163198471" lon="34.803634644">
<ele>335.1</ele>
<time>2013-11-19T09:43:44Z</time>
<speed>6.560000</speed>
<extensions>
<speed>6.6</speed>
<temp>0.00</temp>
<bpm>0</bpm>
<rpm>0.00</rpm>
</extensions>
</trkpt>
<trkpt lat="31.159671783" lon="34.804233551">
<ele>324.5</ele>
<time>2013-11-19T09:44:39Z</time>
<speed>8.320000</speed>
<extensions>
<speed>8.3</speed>
<temp>0.00</temp>
<bpm>0</bpm>
<rpm>0.00</rpm>
</extensions>
</trkpt>
<trkpt lat="31.158306122" lon="34.804012299">
<ele>322.4</ele>
<time>2013-11-19T09:44:59Z</time>
<speed>5.200000</speed>
<extensions>
<speed>5.2</speed>
<temp>0.00</temp>
<bpm>0</bpm>
<rpm>0.00</rpm>
</extensions>
</trkpt>
<trkpt lat="31.157531738" lon="34.804618835">
<ele>325.3</ele>
<time>2013-11-19T09:45:29Z</time>
<speed>3.740000</speed>
<extensions>
<speed>3.7</speed>
<temp>0.00</temp>
<bpm>0</bpm>
<rpm>0.00</rpm>
</extensions>
</trkpt>
<trkpt lat="31.153522491" lon="34.805267334">
<ele>328.6</ele>
<time>2013-11-19T09:47:14Z</time>
<speed>8.510000</speed>
<extensions>
<speed>8.5</speed>
<temp>0.00</temp>
<bpm>0</bpm>
<rpm>0.00</rpm>
</extensions>
</trkpt>
<trkpt lat="31.150945663" lon="34.805122375">
<ele>327.9</ele>
<time>2013-11-19T09:48:44Z</time>
<speed>0.670000</speed>
<extensions>
<speed>0.7</speed>
<temp>0.00</temp>
<bpm>0</bpm>
<rpm>0.00</rpm>
</extensions>
</trkpt>
<trkpt lat="31.151136398" lon="34.804935455">
<ele>330.3</ele>
<time>2013-11-19T09:49:04Z</time>
<speed>1.690000</speed>
<extensions>
<speed>1.7</speed>
<temp>0.00</temp>
<bpm>0</bpm>
<rpm>0.00</rpm>
</extensions>
</trkpt>
<trkpt lat="31.151000977" lon="34.804290771">
<ele>333.6</ele>
<time>2013-11-19T09:55:24Z</time>
<speed>0.020000</speed>
<extensions>
<speed>0.0</speed>
<temp>0.00</temp>
<bpm>0</bpm>
<rpm>0.00</rpm>
</extensions>
</trkpt>
<trkpt lat="31.151130676" lon="34.804924011">
<ele>330.3</ele>
<time>2013-11-19T09:58:44Z</time>
<speed>2.550000</speed>
<extensions>
<speed>2.6</speed>
<temp>0.00</temp>
<bpm>0</bpm>
<rpm>0.00</rpm>
</extensions>
</trkpt>
<trkpt lat="31.150945663" lon="34.805068970">
<ele>328.3</ele>
<time>2013-11-19T09:58:54Z</time>
<speed>3.930000</speed>
<extensions>
<speed>3.9</speed>
<temp>0.00</temp>
<bpm>0</bpm>
<rpm>0.00</rpm>
</extensions>
</trkpt>
<trkpt lat="31.146503448" lon="34.804683685">
<ele>316.9</ele>
<time>2013-11-19T10:00:09Z</time>
<speed>8.090000</speed>
<extensions>
<speed>8.1</speed>
<temp>0.00</temp>
<bpm>0</bpm>
<rpm>0.00</rpm>
</extensions>
</trkpt>
<trkpt lat="31.145622253" lon="34.803985596">
<ele>313.3</ele>
<time>2013-11-19T10:00:24Z</time>
<speed>3.760000</speed>
<extensions>
<speed>3.8</speed>
<temp>0.00</temp>
<bpm>0</bpm>
<rpm>0.00</rpm>
</extensions>
</trkpt>
<trkpt lat="31.145647049" lon="34.803337097">
<ele>310.9</ele>
<time>2013-11-19T10:00:49Z</time>
<speed>1.730000</speed>
<extensions>
<speed>1.7</speed>
<temp>0.00</temp>
<bpm>0</bpm>
<rpm>0.00</rpm>
</extensions>
</trkpt>
<trkpt lat="31.145608902" lon="34.803997040">
<ele>313.3</ele>
<time>2013-11-19T10:01:09Z</time>
<speed>3.470000</speed>
<extensions>
<speed>3.5</speed>
<temp>0.00</temp>
<bpm>0</bpm>
<rpm>0.00</rpm>
</extensions>
</trkpt>
<trkpt lat="31.144981384" lon="34.804737091">
<ele>317.4</ele>
<time>2013-11-19T10:01:39Z</time>
<speed>3.450000</speed>
<extensions>
<speed>3.5</speed>
<temp>0.00</temp>
<bpm>0</bpm>
<rpm>0.00</rpm>
</extensions>
</trkpt>
<trkpt lat="31.143636703" lon="34.804725647">
<ele>323.6</ele>
<time>2013-11-19T10:02:29Z</time>
<speed>2.790000</speed>
<extensions>
<speed>2.8</speed>
<temp>0.00</temp>
<bpm>0</bpm>
<rpm>0.00</rpm>
</extensions>
</trkpt>
<trkpt lat="31.140754700" lon="34.804229736">
<ele>332.5</ele>
<time>2013-11-19T10:05:19Z</time>
<speed>3.590000</speed>
<extensions>
<speed>3.6</speed>
<temp>0.00</temp>
<bpm>0</bpm>
<rpm>0.00</rpm>
</extensions>
</trkpt>
<trkpt lat="31.139080048" lon="34.804180145">
<ele>332.9</ele>
<time>2013-11-19T10:05:59Z</time>
<speed>5.450000</speed>
<extensions>
<speed>5.5</speed>
<temp>0.00</temp>
<bpm>0</bpm>
<rpm>0.00</rpm>
</extensions>
</trkpt>
<trkpt lat="31.137182236" lon="34.804389954">
<ele>329.8</ele>
<time>2013-11-19T10:06:34Z</time>
<speed>7.110000</speed>
<extensions>
<speed>7.1</speed>
<temp>0.00</temp>
<bpm>0</bpm>
<rpm>0.00</rpm>
</extensions>
</trkpt>
<trkpt lat="31.136137009" lon="34.804748535">
<ele>327.6</ele>
<time>2013-11-19T10:07:09Z</time>
<speed>2.520000</speed>
<extensions>
<speed>2.5</speed>
<temp>0.00</temp>
<bpm>0</bpm>
<rpm>0.00</rpm>
</extensions>
</trkpt>
<trkpt lat="31.135997772" lon="34.804527283">
<ele>326.7</ele>
<time>2013-11-19T10:07:19Z</time>
<speed>3.540000</speed>
<extensions>
<speed>3.5</speed>
<temp>0.00</temp>
<bpm>0</bpm>
<rpm>0.00</rpm>
</extensions>
</trkpt>
<trkpt lat="31.136013031" lon="34.803882599">
<ele>327.1</ele>
<time>2013-11-19T10:07:34Z</time>
<speed>3.470000</speed>
<extensions>
<speed>3.5</speed>
<temp>0.00</temp>
<bpm>0</bpm>
<rpm>0.00</rpm>
</extensions>
</trkpt>
<trkpt lat="31.135715485" lon="34.803806305">
<ele>326.4</ele>
<time>2013-11-19T10:07:54Z</time>
<speed>0.020000</speed>
<extensions>
<speed>0.0</speed>
<temp>0.00</temp>
<bpm>0</bpm>
<rpm>0.00</rpm>
</extensions>
</trkpt>
<trkpt lat="31.135717392" lon="34.803230286">
<ele>327.1</ele>
<time>2013-11-19T10:08:14Z</time>
<speed>3.480000</speed>
<extensions>
<speed>3.5</speed>
<temp>0.00</temp>
<bpm>0</bpm>
<rpm>0.00</rpm>
</extensions>
</trkpt>
<trkpt lat="31.135568619" lon="34.803192139">
<ele>326.8</ele>
<time>2013-11-19T10:08:19Z</time>
<speed>3.820000</speed>
<extensions>
<speed>3.8</speed>
<temp>0.00</temp>
<bpm>0</bpm>
<rpm>0.00</rpm>
</extensions>
</trkpt>
<trkpt lat="31.134735107" lon="34.803977966">
<ele>324.7</ele>
<time>2013-11-19T10:09:24Z</time>
<speed>3.900000</speed>
<extensions>
<speed>3.9</speed>
<temp>0.00</temp>
<bpm>0</bpm>
<rpm>0.00</rpm>
</extensions>
</trkpt>
<trkpt lat="31.134199142" lon="34.805038452">
<ele>318.0</ele>
<time>2013-11-19T10:09:44Z</time>
<speed>7.310000</speed>
<extensions>
<speed>7.3</speed>
<temp>0.00</temp>
<bpm>0</bpm>
<rpm>0.00</rpm>
</extensions>
</trkpt>
<trkpt lat="31.132799149" lon="34.805164337">
<ele>314.6</ele>
<time>2013-11-19T10:10:04Z</time>
<speed>6.740000</speed>
<extensions>
<speed>6.7</speed>
<temp>0.00</temp>
<bpm>0</bpm>
<rpm>0.00</rpm>
</extensions>
</trkpt>
<trkpt lat="31.132270813" lon="34.805065155">
<ele>314.6</ele>
<time>2013-11-19T10:10:14Z</time>
<speed>5.650000</speed>
<extensions>
<speed>5.7</speed>
<temp>0.00</temp>
<bpm>0</bpm>
<rpm>0.00</rpm>
</extensions>
</trkpt>
<trkpt lat="31.128896713" lon="34.806198120">
<ele>322.6</ele>
<time>2013-11-19T10:11:59Z</time>
<speed>4.720000</speed>
<extensions>
<speed>4.7</speed>
<temp>0.00</temp>
<bpm>0</bpm>
<rpm>0.00</rpm>
</extensions>
</trkpt>
<trkpt lat="31.127994537" lon="34.806053162">
<ele>326.7</ele>
<time>2013-11-19T10:12:24Z</time>
<speed>4.340000</speed>
<extensions>
<speed>4.3</speed>
<temp>0.00</temp>
<bpm>0</bpm>
<rpm>0.00</rpm>
</extensions>
</trkpt>
<trkpt lat="31.127408981" lon="34.806186676">
<ele>326.8</ele>
<time>2013-11-19T10:12:39Z</time>
<speed>4.660000</speed>
<extensions>
<speed>4.7</speed>
<temp>0.00</temp>
<bpm>0</bpm>
<rpm>0.00</rpm>
</extensions>
</trkpt>
<trkpt lat="31.125577927" lon="34.807586670">
<ele>324.3</ele>
<time>2013-11-19T10:13:24Z</time>
<speed>4.790000</speed>
<extensions>
<speed>4.8</speed>
<temp>0.00</temp>
<bpm>0</bpm>
<rpm>0.00</rpm>
</extensions>
</trkpt>
<trkpt lat="31.124116898" lon="34.808208466">
<ele>320.2</ele>
<time>2013-11-19T10:13:54Z</time>
<speed>6.260000</speed>
<extensions>
<speed>6.3</speed>
<temp>0.00</temp>
<bpm>0</bpm>
<rpm>0.00</rpm>
</extensions>
</trkpt>
<trkpt lat="31.122726440" lon="34.809436798">
<ele>319.5</ele>
<time>2013-11-19T10:14:29Z</time>
<speed>3.420000</speed>
<extensions>
<speed>3.4</speed>
<temp>0.00</temp>
<bpm>0</bpm>
<rpm>0.00</rpm>
</extensions>
</trkpt>
<trkpt lat="31.118383408" lon="34.811958313">
<ele>323.8</ele>
<time>2013-11-19T10:16:59Z</time>
<speed>2.130000</speed>
<extensions>
<speed>2.1</speed>
<temp>0.00</temp>
<bpm>0</bpm>
<rpm>0.00</rpm>
</extensions>
</trkpt>
<trkpt lat="31.116527557" lon="34.813854218">
<ele>336.7</ele>
<time>2013-11-19T10:18:39Z</time>
<speed>3.500000</speed>
<extensions>
<speed>3.5</speed>
<temp>0.00</temp>
<bpm>0</bpm>
<rpm>0.00</rpm>
</extensions>
</trkpt>
<trkpt lat="31.114339828" lon="34.814964294">
<ele>343.6</ele>
<time>2013-11-19T10:21:39Z</time>
<speed>1.110000</speed>
<extensions>
<speed>1.1</speed>
<temp>0.00</temp>
<bpm>0</bpm>
<rpm>0.00</rpm>
</extensions>
</trkpt>
<trkpt lat="31.113574982" lon="34.816417694">
<ele>339.2</ele>
<time>2013-11-19T10:25:34Z</time>
<speed>4.020000</speed>
<extensions>
<speed>4.0</speed>
<temp>0.00</temp>
<bpm>0</bpm>
<rpm>0.00</rpm>
</extensions>
</trkpt>
<trkpt lat="31.105463028" lon="34.824020386">
<ele>352.6</ele>
<time>2013-11-19T10:30:04Z</time>
<speed>4.590000</speed>
<extensions>
<speed>4.6</speed>
<temp>0.00</temp>
<bpm>0</bpm>
<rpm>0.00</rpm>
</extensions>
</trkpt>
<trkpt lat="31.104970932" lon="34.824298859">
<ele>353.2</ele>
<time>2013-11-19T10:30:19Z</time>
<speed>3.380000</speed>
<extensions>
<speed>3.4</speed>
<temp>0.00</temp>
<bpm>0</bpm>
<rpm>0.00</rpm>
</extensions>
</trkpt>
<trkpt lat="31.104528427" lon="34.824115753">
<ele>353.6</ele>
<time>2013-11-19T10:45:04Z</time>
<extensions>
<speed>0.0</speed>
<temp>0.00</temp>
<bpm>0</bpm>
<rpm>0.00</rpm>
</extensions>
</trkpt>
<trkpt lat="31.104333878" lon="34.824382782">
<ele>352.5</ele>
<time>2013-11-19T10:47:54Z</time>
<speed>0.080000</speed>
<extensions>
<speed>0.1</speed>
<temp>0.00</temp>
<bpm>0</bpm>
<rpm>0.00</rpm>
</extensions>
</trkpt>
<trkpt lat="31.104505539" lon="34.824653625">
<ele>352.5</ele>
<time>2013-11-19T10:51:54Z</time>
<speed>3.040000</speed>
<extensions>
<speed>3.0</speed>
<temp>0.00</temp>
<bpm>0</bpm>
<rpm>0.00</rpm>
</extensions>
</trkpt>
<trkpt lat="31.104421616" lon="34.825016022">
<ele>352.7</ele>
<time>2013-11-19T10:52:04Z</time>
<speed>4.050000</speed>
<extensions>
<speed>4.0</speed>
<temp>0.00</temp>
<bpm>0</bpm>
<rpm>0.00</rpm>
</extensions>
</trkpt>
<trkpt lat="31.103223801" lon="34.825832367">
<ele>351.6</ele>
<time>2013-11-19T10:52:34Z</time>
<speed>5.250000</speed>
<extensions>
<speed>5.2</speed>
<temp>0.00</temp>
<bpm>0</bpm>
<rpm>0.00</rpm>
</extensions>
</trkpt>
<trkpt lat="31.094669342" lon="34.828437805">
<ele>333.6</ele>
<time>2013-11-19T10:57:09Z</time>
<speed>3.470000</speed>
<extensions>
<speed>3.5</speed>
<temp>0.00</temp>
<bpm>0</bpm>
<rpm>0.00</rpm>
</extensions>
</trkpt>
<trkpt lat="31.090467453" lon="34.829360962">
<ele>333.7</ele>
<time>2013-11-19T10:59:44Z</time>
<speed>5.400000</speed>
<extensions>
<speed>5.4</speed>
<temp>0.00</temp>
<bpm>0</bpm>
<rpm>0.00</rpm>
</extensions>
</trkpt>
<trkpt lat="31.089166641" lon="34.830215454">
<ele>335.4</ele>
<time>2013-11-19T11:00:14Z</time>
<speed>5.670000</speed>
<extensions>
<speed>5.7</speed>
<temp>0.00</temp>
<bpm>0</bpm>
<rpm>0.00</rpm>
</extensions>
</trkpt>
<trkpt lat="31.086833954" lon="34.832870483">
<ele>337.1</ele>
<time>2013-11-19T11:01:34Z</time>
<speed>5.290000</speed>
<extensions>
<speed>5.3</speed>
<temp>0.00</temp>
<bpm>0</bpm>
<rpm>0.00</rpm>
</extensions>
</trkpt>
<trkpt lat="31.085571289" lon="34.833801270">
<ele>337.9</ele>
<time>2013-11-19T11:02:04Z</time>
<speed>5.670000</speed>
<extensions>
<speed>5.7</speed>
<temp>0.00</temp>
<bpm>0</bpm>
<rpm>0.00</rpm>
</extensions>
</trkpt>
<trkpt lat="31.084453583" lon="34.834312439">
<ele>338.2</ele>
<time>2013-11-19T11:02:29Z</time>
<speed>5.670000</speed>
<extensions>
<speed>5.7</speed>
<temp>0.00</temp>
<bpm>0</bpm>
<rpm>0.00</rpm>
</extensions>
</trkpt>
<trkpt lat="31.077907562" lon="34.836326599">
<ele>341.7</ele>
<time>2013-11-19T11:08:09Z</time>
<speed>6.170000</speed>
<extensions>
<speed>6.2</speed>
<temp>0.00</temp>
<bpm>0</bpm>
<rpm>0.00</rpm>
</extensions>
</trkpt>
<trkpt lat="31.077022552" lon="34.836940765">
<ele>343.1</ele>
<time>2013-11-19T11:08:29Z</time>
<speed>6.140000</speed>
<extensions>
<speed>6.1</speed>
<temp>0.00</temp>
<bpm>0</bpm>
<rpm>0.00</rpm>
</extensions>
</trkpt>
<trkpt lat="31.075393677" lon="34.838569641">
<ele>347.9</ele>
<time>2013-11-19T11:09:14Z</time>
<speed>4.470000</speed>
<extensions>
<speed>4.5</speed>
<temp>0.00</temp>
<bpm>0</bpm>
<rpm>0.00</rpm>
</extensions>
</trkpt>
<trkpt lat="31.073917389" lon="34.839344025">
<ele>349.1</ele>
<time>2013-11-19T11:09:49Z</time>
<speed>5.750000</speed>
<extensions>
<speed>5.8</speed>
<temp>0.00</temp>
<bpm>0</bpm>
<rpm>0.00</rpm>
</extensions>
</trkpt>
<trkpt lat="31.072433472" lon="34.839508057">
<ele>351.1</ele>
<time>2013-11-19T11:10:19Z</time>
<speed>6.070000</speed>
<extensions>
<speed>6.1</speed>
<temp>0.00</temp>
<bpm>0</bpm>
<rpm>0.00</rpm>
</extensions>
</trkpt>
<trkpt lat="31.067804337" lon="34.838394165">
<ele>356.0</ele>
<time>2013-11-19T11:12:29Z</time>
<speed>3.540000</speed>
<extensions>
<speed>3.5</speed>
<temp>0.00</temp>
<bpm>0</bpm>
<rpm>0.00</rpm>
</extensions>
</trkpt>
<trkpt lat="31.064687729" lon="34.838527679">
<ele>362.6</ele>
<time>2013-11-19T11:17:04Z</time>
<speed>4.800000</speed>
<extensions>
<speed>4.8</speed>
<temp>0.00</temp>
<bpm>0</bpm>
<rpm>0.00</rpm>
</extensions>
</trkpt>
<trkpt lat="31.063531876" lon="34.838260651">
<ele>364.2</ele>
<time>2013-11-19T11:17:29Z</time>
<speed>5.290000</speed>
<extensions>
<speed>5.3</speed>
<temp>0.00</temp>
<bpm>0</bpm>
<rpm>0.00</rpm>
</extensions>
</trkpt>
<trkpt lat="31.063026428" lon="34.838008881">
<ele>365.5</ele>
<time>2013-11-19T11:17:44Z</time>
<speed>2.620000</speed>
<extensions>
<speed>2.6</speed>
<temp>0.00</temp>
<bpm>0</bpm>
<rpm>0.00</rpm>
</extensions>
</trkpt>
<trkpt lat="31.062866211" lon="34.837581635">
<ele>365.6</ele>
<time>2013-11-19T11:18:19Z</time>
<speed>2.890000</speed>
<extensions>
<speed>2.9</speed>
<temp>0.00</temp>
<bpm>0</bpm>
<rpm>0.00</rpm>
</extensions>
</trkpt>
<trkpt lat="31.062229156" lon="34.837310791">
<ele>368.2</ele>
<time>2013-11-19T11:18:39Z</time>
<speed>3.590000</speed>
<extensions>
<speed>3.6</speed>
<temp>0.00</temp>
<bpm>0</bpm>
<rpm>0.00</rpm>
</extensions>
</trkpt>
<trkpt lat="31.060230255" lon="34.835334778">
<ele>376.9</ele>
<time>2013-11-19T11:20:54Z</time>
<speed>1.110000</speed>
<extensions>
<speed>1.1</speed>
<temp>0.00</temp>
<bpm>0</bpm>
<rpm>0.00</rpm>
</extensions>
</trkpt>
<trkpt lat="31.060106277" lon="34.834728241">
<ele>387.6</ele>
<time>2013-11-19T11:21:44Z</time>
<speed>1.000000</speed>
<extensions>
<speed>1.0</speed>
<temp>0.00</temp>
<bpm>0</bpm>
<rpm>0.00</rpm>
</extensions>
</trkpt>
<trkpt lat="31.060478210" lon="34.833156586">
<ele>378.5</ele>
<time>2013-11-19T11:23:04Z</time>
<speed>7.030000</speed>
<extensions>
<speed>7.0</speed>
<temp>0.00</temp>
<bpm>0</bpm>
<rpm>0.00</rpm>
</extensions>
</trkpt>
<trkpt lat="31.060447693" lon="34.832832336">
<ele>376.5</ele>
<time>2013-11-19T11:23:09Z</time>
<speed>4.800000</speed>
<extensions>
<speed>4.8</speed>
<temp>0.00</temp>
<bpm>0</bpm>
<rpm>0.00</rpm>
</extensions>
</trkpt>
<trkpt lat="31.060041428" lon="34.832550049">
<ele>378.1</ele>
<time>2013-11-19T11:29:19Z</time>
<speed>0.080000</speed>
<extensions>
<speed>0.1</speed>
<temp>0.00</temp>
<bpm>0</bpm>
<rpm>0.00</rpm>
</extensions>
</trkpt>
<trkpt lat="31.060642242" lon="34.832588196">
<ele>375.6</ele>
<time>2013-11-19T11:29:39Z</time>
<speed>3.950000</speed>
<extensions>
<speed>4.0</speed>
<temp>0.00</temp>
<bpm>0</bpm>
<rpm>0.00</rpm>
</extensions>
</trkpt>
<trkpt lat="31.061203003" lon="34.833053589">
<ele>375.0</ele>
<time>2013-11-19T11:30:04Z</time>
<speed>0.210000</speed>
<extensions>
<speed>0.2</speed>
<temp>0.00</temp>
<bpm>0</bpm>
<rpm>0.00</rpm>
</extensions>
</trkpt>
<trkpt lat="31.060775757" lon="34.832618713">
<ele>375.4</ele>
<time>2013-11-19T11:37:09Z</time>
<speed>3.650000</speed>
<extensions>
<speed>3.7</speed>
<temp>0.00</temp>
<bpm>0</bpm>
<rpm>0.00</rpm>
</extensions>
</trkpt>
<trkpt lat="31.060060501" lon="34.832500458">
<ele>377.8</ele>
<time>2013-11-19T11:37:39Z</time>
<speed>2.710000</speed>
<extensions>
<speed>2.7</speed>
<temp>0.00</temp>
<bpm>0</bpm>
<rpm>0.00</rpm>
</extensions>
</trkpt>
<trkpt lat="31.059114456" lon="34.831840515">
<ele>383.2</ele>
<time>2013-11-19T11:38:14Z</time>
<speed>2.600000</speed>
<extensions>
<speed>2.6</speed>
<temp>0.00</temp>
<bpm>0</bpm>
<rpm>0.00</rpm>
</extensions>
</trkpt>
<trkpt lat="31.056949615" lon="34.831943512">
<ele>382.7</ele>
<time>2013-11-19T11:39:24Z</time>
<speed>3.030000</speed>
<extensions>
<speed>3.0</speed>
<temp>0.00</temp>
<bpm>0</bpm>
<rpm>0.00</rpm>
</extensions>
</trkpt>
<trkpt lat="31.055780411" lon="34.831432343">
<ele>385.5</ele>
<time>2013-11-19T11:39:59Z</time>
<speed>2.710000</speed>
<extensions>
<speed>2.7</speed>
<temp>0.00</temp>
<bpm>0</bpm>
<rpm>0.00</rpm>
</extensions>
</trkpt>
<trkpt lat="31.054534912" lon="34.830268860">
<ele>388.1</ele>
<time>2013-11-19T11:41:04Z</time>
<speed>4.090000</speed>
<extensions>
<speed>4.1</speed>
<temp>0.00</temp>
<bpm>0</bpm>
<rpm>0.00</rpm>
</extensions>
</trkpt>
<trkpt lat="31.053979874" lon="34.829177856">
<ele>388.3</ele>
<time>2013-11-19T11:41:34Z</time>
<speed>4.610000</speed>
<extensions>
<speed>4.6</speed>
<temp>0.00</temp>
<bpm>0</bpm>
<rpm>0.00</rpm>
</extensions>
</trkpt>
<trkpt lat="31.053255081" lon="34.828178406">
<ele>388.4</ele>
<time>2013-11-19T11:41:59Z</time>
<speed>6.170000</speed>
<extensions>
<speed>6.2</speed>
<temp>0.00</temp>
<bpm>0</bpm>
<rpm>0.00</rpm>
</extensions>
</trkpt>
<trkpt lat="31.051864624" lon="34.825298309">
<ele>385.5</ele>
<time>2013-11-19T11:42:49Z</time>
<speed>4.340000</speed>
<extensions>
<speed>4.3</speed>
<temp>0.00</temp>
<bpm>0</bpm>
<rpm>0.00</rpm>
</extensions>
</trkpt>
<trkpt lat="31.050689697" lon="34.824348450">
<ele>384.3</ele>
<time>2013-11-19T11:43:19Z</time>
<speed>5.310000</speed>
<extensions>
<speed>5.3</speed>
<temp>0.00</temp>
<bpm>0</bpm>
<rpm>0.00</rpm>
</extensions>
</trkpt>
<trkpt lat="31.050258636" lon="34.823593140">
<ele>383.9</ele>
<time>2013-11-19T11:43:34Z</time>
<speed>6.310000</speed>
<extensions>
<speed>6.3</speed>
<temp>0.00</temp>
<bpm>0</bpm>
<rpm>0.00</rpm>
</extensions>
</trkpt>
<trkpt lat="31.048173904" lon="34.821094513">
<ele>379.3</ele>
<time>2013-11-19T11:44:19Z</time>
<speed>5.700000</speed>
<extensions>
<speed>5.7</speed>
<temp>0.00</temp>
<bpm>0</bpm>
<rpm>0.00</rpm>
</extensions>
</trkpt>
<trkpt lat="31.046939850" lon="34.818656921">
<ele>374.8</ele>
<time>2013-11-19T11:44:54Z</time>
<speed>8.950000</speed>
<extensions>
<speed>9.0</speed>
<temp>0.00</temp>
<bpm>0</bpm>
<rpm>0.00</rpm>
</extensions>
</trkpt>
<trkpt lat="31.045003891" lon="34.815856934">
<ele>372.8</ele>
<time>2013-11-19T11:45:39Z</time>
<speed>6.740000</speed>
<extensions>
<speed>6.7</speed>
<temp>0.00</temp>
<bpm>0</bpm>
<rpm>0.00</rpm>
</extensions>
</trkpt>
<trkpt lat="31.043214798" lon="34.814235687">
<ele>371.9</ele>
<time>2013-11-19T11:46:19Z</time>
<speed>7.420000</speed>
<extensions>
<speed>7.4</speed>
<temp>0.00</temp>
<bpm>0</bpm>
<rpm>0.00</rpm>
</extensions>
</trkpt>
<trkpt lat="31.040168762" lon="34.810256958">
<ele>364.0</ele>
<time>2013-11-19T11:48:44Z</time>
<speed>6.120000</speed>
<extensions>
<speed>6.1</speed>
<temp>0.00</temp>
<bpm>0</bpm>
<rpm>0.00</rpm>
</extensions>
</trkpt>
<trkpt lat="31.039394379" lon="34.808826447">
<ele>361.2</ele>
<time>2013-11-19T11:49:09Z</time>
<speed>8.130000</speed>
<extensions>
<speed>8.1</speed>
<temp>0.00</temp>
<bpm>0</bpm>
<rpm>0.00</rpm>
</extensions>
</trkpt>
<trkpt lat="31.038572311" lon="34.807857513">
<ele>358.2</ele>
<time>2013-11-19T11:49:24Z</time>
<speed>6.670000</speed>
<extensions>
<speed>6.7</speed>
<temp>0.00</temp>
<bpm>0</bpm>
<rpm>0.00</rpm>
</extensions>
</trkpt>
<trkpt lat="31.037387848" lon="34.806842804">
<ele>358.7</ele>
<time>2013-11-19T11:50:39Z</time>
<speed>4.030000</speed>
<extensions>
<speed>4.0</speed>
<temp>0.00</temp>
<bpm>0</bpm>
<rpm>0.00</rpm>
</extensions>
</trkpt>
<trkpt lat="31.035900116" lon="34.804103851">
<ele>356.8</ele>
<time>2013-11-19T11:51:44Z</time>
<speed>5.560000</speed>
<extensions>
<speed>5.6</speed>
<temp>0.00</temp>
<bpm>0</bpm>
<rpm>0.00</rpm>
</extensions>
</trkpt>
<trkpt lat="31.031951904" lon="34.801113129">
<ele>355.5</ele>
<time>2013-11-19T11:53:14Z</time>
<speed>4.650000</speed>
<extensions>
<speed>4.6</speed>
<temp>0.00</temp>
<bpm>0</bpm>
<rpm>0.00</rpm>
</extensions>
</trkpt>
<trkpt lat="31.030710220" lon="34.800510406">
<ele>354.5</ele>
<time>2013-11-19T11:53:39Z</time>
<speed>5.770000</speed>
<extensions>
<speed>5.8</speed>
<temp>0.00</temp>
<bpm>0</bpm>
<rpm>0.00</rpm>
</extensions>
</trkpt>
<trkpt lat="31.029720306" lon="34.799808502">
<ele>355.0</ele>
<time>2013-11-19T11:54:09Z</time>
<speed>3.780000</speed>
<extensions>
<speed>3.8</speed>
<temp>0.00</temp>
<bpm>0</bpm>
<rpm>0.00</rpm>
</extensions>
</trkpt>
<trkpt lat="31.028362274" lon="34.798118591">
<ele>355.9</ele>
<time>2013-11-19T11:54:59Z</time>
<speed>5.840000</speed>
<extensions>
<speed>5.8</speed>
<temp>0.00</temp>
<bpm>0</bpm>
<rpm>0.00</rpm>
</extensions>
</trkpt>
<trkpt lat="31.025331497" lon="34.795326233">
<ele>354.8</ele>
<time>2013-11-19T11:56:09Z</time>
<speed>5.800000</speed>
<extensions>
<speed>5.8</speed>
<temp>0.00</temp>
<bpm>0</bpm>
<rpm>0.00</rpm>
</extensions>
</trkpt>
<trkpt lat="31.024518967" lon="34.794097900">
<ele>354.4</ele>
<time>2013-11-19T11:56:34Z</time>
<speed>5.330000</speed>
<extensions>
<speed>5.3</speed>
<temp>0.00</temp>
<bpm>0</bpm>
<rpm>0.00</rpm>
</extensions>
</trkpt>
<trkpt lat="31.023811340" lon="34.793479919">
<ele>356.3</ele>
<time>2013-11-19T11:56:59Z</time>
<speed>4.130000</speed>
<extensions>
<speed>4.1</speed>
<temp>0.00</temp>
<bpm>0</bpm>
<rpm>0.00</rpm>
</extensions>
</trkpt>
<trkpt lat="31.023471832" lon="34.792964935">
<ele>356.6</ele>
<time>2013-11-19T11:58:24Z</time>
<extensions>
<speed>0.0</speed>
<temp>0.00</temp>
<bpm>0</bpm>
<rpm>0.00</rpm>
</extensions>
</trkpt>
<trkpt lat="31.023366928" lon="34.793087006">
<ele>356.7</ele>
<time>2013-11-19T12:00:59Z</time>
<speed>0.870000</speed>
<extensions>
<speed>0.9</speed>
<temp>0.00</temp>
<bpm>0</bpm>
<rpm>0.00</rpm>
</extensions>
</trkpt>
<trkpt lat="31.023502350" lon="34.792751312">
<ele>356.6</ele>
<time>2013-11-19T12:01:14Z</time>
<speed>3.660000</speed>
<extensions>
<speed>3.7</speed>
<temp>0.00</temp>
<bpm>0</bpm>
<rpm>0.00</rpm>
</extensions>
</trkpt>
<trkpt lat="31.022607803" lon="34.791595459">
<ele>356.5</ele>
<time>2013-11-19T12:01:54Z</time>
<speed>4.280000</speed>
<extensions>
<speed>4.3</speed>
<temp>0.00</temp>
<bpm>0</bpm>
<rpm>0.00</rpm>
</extensions>
</trkpt>
<trkpt lat="31.022075653" lon="34.790424347">
<ele>356.2</ele>
<time>2013-11-19T12:02:24Z</time>
<speed>4.440000</speed>
<extensions>
<speed>4.4</speed>
<temp>0.00</temp>
<bpm>0</bpm>
<rpm>0.00</rpm>
</extensions>
</trkpt>
<trkpt lat="31.021873474" lon="34.789390564">
<ele>355.7</ele>
<time>2013-11-19T12:02:59Z</time>
<speed>2.230000</speed>
<extensions>
<speed>2.2</speed>
<temp>0.00</temp>
<bpm>0</bpm>
<rpm>0.00</rpm>
</extensions>
</trkpt>
<trkpt lat="31.021467209" lon="34.790409088">
<ele>353.9</ele>
<time>2013-11-19T12:03:34Z</time>
<speed>3.320000</speed>
<extensions>
<speed>3.3</speed>
<temp>0.00</temp>
<bpm>0</bpm>
<rpm>0.00</rpm>
</extensions>
</trkpt>
<trkpt lat="31.021070480" lon="34.790653229">
<ele>353.1</ele>
<time>2013-11-19T12:03:49Z</time>
<speed>2.800000</speed>
<extensions>
<speed>2.8</speed>
<temp>0.00</temp>
<bpm>0</bpm>
<rpm>0.00</rpm>
</extensions>
</trkpt>
<trkpt lat="31.020719528" lon="34.790382385">
<ele>352.1</ele>
<time>2013-11-19T12:04:04Z</time>
<speed>3.880000</speed>
<extensions>
<speed>3.9</speed>
<temp>0.00</temp>
<bpm>0</bpm>
<rpm>0.00</rpm>
</extensions>
</trkpt>
<trkpt lat="31.020076752" lon="34.789176941">
<ele>350.3</ele>
<time>2013-11-19T12:04:39Z</time>
<speed>1.900000</speed>
<extensions>
<speed>1.9</speed>
<temp>0.00</temp>
<bpm>0</bpm>
<rpm>0.00</rpm>
</extensions>
</trkpt>
<trkpt lat="31.019680023" lon="34.788883209">
<ele>349.9</ele>
<time>2013-11-19T12:04:54Z</time>
<speed>2.270000</speed>
<extensions>
<speed>2.3</speed>
<temp>0.00</temp>
<bpm>0</bpm>
<rpm>0.00</rpm>
</extensions>
</trkpt>
<trkpt lat="31.018985748" lon="34.789222717">
<ele>348.6</ele>
<time>2013-11-19T12:05:19Z</time>
<speed>3.830000</speed>
<extensions>
<speed>3.8</speed>
<temp>0.00</temp>
<bpm>0</bpm>
<rpm>0.00</rpm>
</extensions>
</trkpt>
<trkpt lat="31.017206192" lon="34.787685394">
<ele>346.7</ele>
<time>2013-11-19T12:06:04Z</time>
<speed>5.700000</speed>
<extensions>
<speed>5.7</speed>
<temp>0.00</temp>
<bpm>0</bpm>
<rpm>0.00</rpm>
</extensions>
</trkpt>
<trkpt lat="31.013246536" lon="34.779937744">
<ele>343.1</ele>
<time>2013-11-19T12:08:34Z</time>
<speed>3.490000</speed>
<extensions>
<speed>3.5</speed>
<temp>0.00</temp>
<bpm>0</bpm>
<rpm>0.00</rpm>
</extensions>
</trkpt>
<trkpt lat="31.012014389" lon="34.778392792">
<ele>338.3</ele>
<time>2013-11-19T12:09:09Z</time>
<speed>7.480000</speed>
<extensions>
<speed>7.5</speed>
<temp>0.00</temp>
<bpm>0</bpm>
<rpm>0.00</rpm>
</extensions>
</trkpt>
<trkpt lat="31.011375427" lon="34.777835846">
<ele>338.2</ele>
<time>2013-11-19T12:09:24Z</time>
<speed>4.710000</speed>
<extensions>
<speed>4.7</speed>
<temp>0.00</temp>
<bpm>0</bpm>
<rpm>0.00</rpm>
</extensions>
</trkpt>
<trkpt lat="31.013818741" lon="34.768184662">
<ele>323.8</ele>
<time>2013-11-19T12:12:04Z</time>
<speed>6.500000</speed>
<extensions>
<speed>6.5</speed>
<temp>0.00</temp>
<bpm>0</bpm>
<rpm>0.00</rpm>
</extensions>
</trkpt>
<trkpt lat="31.015207291" lon="34.763870239">
<ele>323.2</ele>
<time>2013-11-19T12:13:54Z</time>
<speed>4.490000</speed>
<extensions>
<speed>4.5</speed>
<temp>0.00</temp>
<bpm>0</bpm>
<rpm>0.00</rpm>
</extensions>
</trkpt>
<trkpt lat="31.015821457" lon="34.762458801">
<ele>321.5</ele>
<time>2013-11-19T12:15:09Z</time>
<speed>2.080000</speed>
<extensions>
<speed>2.1</speed>
<temp>0.00</temp>
<bpm>0</bpm>
<rpm>0.00</rpm>
</extensions>
</trkpt>
<trkpt lat="31.016000748" lon="34.762435913">
<ele>321.7</ele>
<time>2013-11-19T12:15:34Z</time>
<speed>1.620000</speed>
<extensions>
<speed>1.6</speed>
<temp>0.00</temp>
<bpm>0</bpm>
<rpm>0.00</rpm>
</extensions>
</trkpt>
<trkpt lat="31.015874863" lon="34.762569427">
<ele>321.2</ele>
<time>2013-11-19T12:16:19Z</time>
<speed>0.090000</speed>
<extensions>
<speed>0.1</speed>
<temp>0.00</temp>
<bpm>0</bpm>
<rpm>0.00</rpm>
</extensions>
</trkpt>
<trkpt lat="31.016143799" lon="34.761718750">
<ele>321.8</ele>
<time>2013-11-19T12:17:09Z</time>
<speed>2.110000</speed>
<extensions>
<speed>2.1</speed>
<temp>0.00</temp>
<bpm>0</bpm>
<rpm>0.00</rpm>
</extensions>
</trkpt>
<trkpt lat="31.016427994" lon="34.761684418">
<ele>320.3</ele>
<time>2013-11-19T12:17:24Z</time>
<speed>1.970000</speed>
<extensions>
<speed>2.0</speed>
<temp>0.00</temp>
<bpm>0</bpm>
<rpm>0.00</rpm>
</extensions>
</trkpt>
<trkpt lat="31.016668320" lon="34.761917114">
<ele>317.7</ele>
<time>2013-11-19T12:20:29Z</time>
<speed>0.180000</speed>
<extensions>
<speed>0.2</speed>
<temp>0.00</temp>
<bpm>0</bpm>
<rpm>0.00</rpm>
</extensions>
</trkpt>
<trkpt lat="31.016664505" lon="34.762733459">
<ele>317.7</ele>
<time>2013-11-19T12:21:14Z</time>
<speed>1.990000</speed>
<extensions>
<speed>2.0</speed>
<temp>0.00</temp>
<bpm>0</bpm>
<rpm>0.00</rpm>
</extensions>
</trkpt>
<trkpt lat="31.016773224" lon="34.762519836">
<ele>317.1</ele>
<time>2013-11-19T12:21:39Z</time>
<speed>1.020000</speed>
<extensions>
<speed>1.0</speed>
<temp>0.00</temp>
<bpm>0</bpm>
<rpm>0.00</rpm>
</extensions>
</trkpt>
<trkpt lat="31.017049789" lon="34.762508392">
<ele>317.0</ele>
<time>2013-11-19T12:22:14Z</time>
<speed>1.350000</speed>
<extensions>
<speed>1.4</speed>
<temp>0.00</temp>
<bpm>0</bpm>
<rpm>0.00</rpm>
</extensions>
</trkpt>
<trkpt lat="31.017580032" lon="34.761154175">
<ele>319.1</ele>
<time>2013-11-19T12:23:09Z</time>
<speed>2.350000</speed>
<extensions>
<speed>2.4</speed>
<temp>0.00</temp>
<bpm>0</bpm>
<rpm>0.00</rpm>
</extensions>
</trkpt>
<trkpt lat="31.017339706" lon="34.760112762">
<ele>315.7</ele>
<time>2013-11-19T12:23:59Z</time>
<speed>1.250000</speed>
<extensions>
<speed>1.3</speed>
<temp>0.00</temp>
<bpm>0</bpm>
<rpm>0.00</rpm>
</extensions>
</trkpt>
<trkpt lat="31.016254425" lon="34.761230469">
<ele>321.2</ele>
<time>2013-11-19T12:25:04Z</time>
<speed>1.990000</speed>
<extensions>
<speed>2.0</speed>
<temp>0.00</temp>
<bpm>0</bpm>
<rpm>0.00</rpm>
</extensions>
</trkpt>
<trkpt lat="31.016044617" lon="34.760818481">
<ele>321.2</ele>
<time>2013-11-19T12:25:39Z</time>
<speed>3.290000</speed>
<extensions>
<speed>3.3</speed>
<temp>0.00</temp>
<bpm>0</bpm>
<rpm>0.00</rpm>
</extensions>
</trkpt>
<trkpt lat="31.014829636" lon="34.759868622">
<ele>321.7</ele>
<time>2013-11-19T12:26:24Z</time>
<speed>3.340000</speed>
<extensions>
<speed>3.3</speed>
<temp>0.00</temp>
<bpm>0</bpm>
<rpm>0.00</rpm>
</extensions>
</trkpt>
<trkpt lat="31.014059067" lon="34.759662628">
<ele>323.2</ele>
<time>2013-11-19T12:27:04Z</time>
<speed>1.540000</speed>
<extensions>
<speed>1.5</speed>
<temp>0.00</temp>
<bpm>0</bpm>
<rpm>0.00</rpm>
</extensions>
</trkpt>
<trkpt lat="31.014957428" lon="34.759986877">
<ele>321.5</ele>
<time>2013-11-19T12:28:09Z</time>
<speed>1.760000</speed>
<extensions>
<speed>1.8</speed>
<temp>0.00</temp>
<bpm>0</bpm>
<rpm>0.00</rpm>
</extensions>
</trkpt>
<trkpt lat="31.016035080" lon="34.760883331">
<ele>321.0</ele>
<time>2013-11-19T12:28:54Z</time>
<speed>4.150000</speed>
<extensions>
<speed>4.1</speed>
<temp>0.00</temp>
<bpm>0</bpm>
<rpm>0.00</rpm>
</extensions>
</trkpt>
<trkpt lat="31.017036438" lon="34.758296967">
<ele>318.9</ele>
<time>2013-11-19T12:29:49Z</time>
<speed>4.920000</speed>
<extensions>
<speed>4.9</speed>
<temp>0.00</temp>
<bpm>0</bpm>
<rpm>0.00</rpm>
</extensions>
</trkpt>
<trkpt lat="31.017034531" lon="34.757762909">
<ele>318.2</ele>
<time>2013-11-19T12:30:09Z</time>
<speed>2.600000</speed>
<extensions>
<speed>2.6</speed>
<temp>0.00</temp>
<bpm>0</bpm>
<rpm>0.00</rpm>
</extensions>
</trkpt>
<trkpt lat="31.017517090" lon="34.756858826">
<ele>317.0</ele>
<time>2013-11-19T12:30:34Z</time>
<speed>3.920000</speed>
<extensions>
<speed>3.9</speed>
<temp>0.00</temp>
<bpm>0</bpm>
<rpm>0.00</rpm>
</extensions>
</trkpt>
<trkpt lat="31.017164230" lon="34.755088806">
<ele>315.3</ele>
<time>2013-11-19T12:33:54Z</time>
<speed>3.850000</speed>
<extensions>
<speed>3.8</speed>
<temp>0.00</temp>
<bpm>0</bpm>
<rpm>0.00</rpm>
</extensions>
</trkpt>
<trkpt lat="31.016311646" lon="34.754329681">
<ele>318.1</ele>
<time>2013-11-19T12:34:24Z</time>
<speed>3.220000</speed>
<extensions>
<speed>3.2</speed>
<temp>0.00</temp>
<bpm>0</bpm>
<rpm>0.00</rpm>
</extensions>
</trkpt>
<trkpt lat="31.016223907" lon="34.754032135">
<ele>317.6</ele>
<time>2013-11-19T12:34:34Z</time>
<speed>3.590000</speed>
<extensions>
<speed>3.6</speed>
<temp>0.00</temp>
<bpm>0</bpm>
<rpm>0.00</rpm>
</extensions>
</trkpt>
<trkpt lat="31.016843796" lon="34.750682831">
<ele>318.9</ele>
<time>2013-11-19T12:35:59Z</time>
<speed>4.160000</speed>
<extensions>
<speed>4.2</speed>
<temp>0.00</temp>
<bpm>0</bpm>
<rpm>0.00</rpm>
</extensions>
</trkpt>
<trkpt lat="31.016839981" lon="34.749809265">
<ele>322.3</ele>
<time>2013-11-19T12:36:44Z</time>
<speed>1.040000</speed>
<extensions>
<speed>1.0</speed>
<temp>0.00</temp>
<bpm>0</bpm>
<rpm>0.00</rpm>
</extensions>
</trkpt>
<trkpt lat="31.017126083" lon="34.749164581">
<ele>326.4</ele>
<time>2013-11-19T12:38:09Z</time>
<speed>0.110000</speed>
<extensions>
<speed>0.1</speed>
<temp>0.00</temp>
<bpm>0</bpm>
<rpm>0.00</rpm>
</extensions>
</trkpt>
<trkpt lat="31.016849518" lon="34.749740601">
<ele>323.0</ele>
<time>2013-11-19T12:38:39Z</time>
<speed>2.550000</speed>
<extensions>
<speed>2.6</speed>
<temp>0.00</temp>
<bpm>0</bpm>
<rpm>0.00</rpm>
</extensions>
</trkpt>
<trkpt lat="31.016843796" lon="34.750732422">
<ele>318.9</ele>
<time>2013-11-19T12:39:09Z</time>
<speed>4.850000</speed>
<extensions>
<speed>4.8</speed>
<temp>0.00</temp>
<bpm>0</bpm>
<rpm>0.00</rpm>
</extensions>
</trkpt>
<trkpt lat="31.016239166" lon="34.753997803">
<ele>317.7</ele>
<time>2013-11-19T12:40:24Z</time>
<speed>4.490000</speed>
<extensions>
<speed>4.5</speed>
<temp>0.00</temp>
<bpm>0</bpm>
<rpm>0.00</rpm>
</extensions>
</trkpt>
<trkpt lat="31.016298294" lon="34.754329681">
<ele>318.2</ele>
<time>2013-11-19T12:40:34Z</time>
<speed>3.350000</speed>
<extensions>
<speed>3.4</speed>
<temp>0.00</temp>
<bpm>0</bpm>
<rpm>0.00</rpm>
</extensions>
</trkpt>
<trkpt lat="31.017148972" lon="34.755783081">
<ele>317.1</ele>
<time>2013-11-19T12:41:14Z</time>
<speed>3.080000</speed>
<extensions>
<speed>3.1</speed>
<temp>0.00</temp>
<bpm>0</bpm>
<rpm>0.00</rpm>
</extensions>
</trkpt>
<trkpt lat="31.017492294" lon="34.756816864">
<ele>316.9</ele>
<time>2013-11-19T12:42:04Z</time>
<speed>2.950000</speed>
<extensions>
<speed>2.9</speed>
<temp>0.00</temp>
<bpm>0</bpm>
<rpm>0.00</rpm>
</extensions>
</trkpt>
<trkpt lat="31.016979218" lon="34.757987976">
<ele>318.5</ele>
<time>2013-11-19T12:42:44Z</time>
<speed>2.040000</speed>
<extensions>
<speed>2.0</speed>
<temp>0.00</temp>
<bpm>0</bpm>
<rpm>0.00</rpm>
</extensions>
</trkpt>
<trkpt lat="31.017103195" lon="34.758018494">
<ele>318.8</ele>
<time>2013-11-19T12:42:49Z</time>
<speed>3.980000</speed>
<extensions>
<speed>4.0</speed>
<temp>0.00</temp>
<bpm>0</bpm>
<rpm>0.00</rpm>
</extensions>
</trkpt>
<trkpt lat="31.017667770" lon="34.757232666">
<ele>318.2</ele>
<time>2013-11-19T12:43:09Z</time>
<speed>5.940000</speed>
<extensions>
<speed>5.9</speed>
<temp>0.00</temp>
<bpm>0</bpm>
<rpm>0.00</rpm>
</extensions>
</trkpt>
<trkpt lat="31.018453598" lon="34.756519318">
<ele>316.4</ele>
<time>2013-11-19T12:43:29Z</time>
<speed>5.500000</speed>
<extensions>
<speed>5.5</speed>
<temp>0.00</temp>
<bpm>0</bpm>
<rpm>0.00</rpm>
</extensions>
</trkpt>
<trkpt lat="31.021028519" lon="34.755214691">
<ele>318.4</ele>
<time>2013-11-19T12:44:34Z</time>
<speed>2.580000</speed>
<extensions>
<speed>2.6</speed>
<temp>0.00</temp>
<bpm>0</bpm>
<rpm>0.00</rpm>
</extensions>
</trkpt>
<trkpt lat="31.019025803" lon="34.756919861">
<ele>316.6</ele>
<time>2013-11-19T12:45:54Z</time>
<speed>1.520000</speed>
<extensions>
<speed>1.5</speed>
<temp>0.00</temp>
<bpm>0</bpm>
<rpm>0.00</rpm>
</extensions>
</trkpt>
<trkpt lat="31.019767761" lon="34.758724213">
<ele>322.0</ele>
<time>2013-11-19T12:46:59Z</time>
<speed>2.330000</speed>
<extensions>
<speed>2.3</speed>
<temp>0.00</temp>
<bpm>0</bpm>
<rpm>0.00</rpm>
</extensions>
</trkpt>
<trkpt lat="31.019804001" lon="34.759113312">
<ele>323.8</ele>
<time>2013-11-19T12:47:14Z</time>
<speed>2.300000</speed>
<extensions>
<speed>2.3</speed>
<temp>0.00</temp>
<bpm>0</bpm>
<rpm>0.00</rpm>
</extensions>
</trkpt>
<trkpt lat="31.019220352" lon="34.760501862">
<ele>335.1</ele>
<time>2013-11-19T12:48:54Z</time>
<speed>0.020000</speed>
<extensions>
<speed>0.0</speed>
<temp>0.00</temp>
<bpm>0</bpm>
<rpm>0.00</rpm>
</extensions>
</trkpt>
<trkpt lat="31.018800735" lon="34.760940552">
<ele>339.8</ele>
<time>2013-11-19T12:49:34Z</time>
<speed>1.600000</speed>
<extensions>
<speed>1.6</speed>
<temp>0.00</temp>
<bpm>0</bpm>
<rpm>0.00</rpm>
</extensions>
</trkpt>
<trkpt lat="31.018384933" lon="34.761085510">
<ele>337.1</ele>
<time>2013-11-19T12:50:14Z</time>
<extensions>
<speed>0.0</speed>
<temp>0.00</temp>
<bpm>0</bpm>
<rpm>0.00</rpm>
</extensions>
</trkpt>
<trkpt lat="31.018692017" lon="34.761444092">
<ele>341.1</ele>
<time>2013-11-19T12:53:34Z</time>
<speed>1.410000</speed>
<extensions>
<speed>1.4</speed>
<temp>0.00</temp>
<bpm>0</bpm>
<rpm>0.00</rpm>
</extensions>
</trkpt>
<trkpt lat="31.018491745" lon="34.761852264">
<ele>340.5</ele>
<time>2013-11-19T12:54:24Z</time>
<speed>0.210000</speed>
<extensions>
<speed>0.2</speed>
<temp>0.00</temp>
<bpm>0</bpm>
<rpm>0.00</rpm>
</extensions>
</trkpt>
<trkpt lat="31.020017624" lon="34.759105682">
<ele>322.8</ele>
<time>2013-11-19T12:55:39Z</time>
<speed>2.460000</speed>
<extensions>
<speed>2.5</speed>
<temp>0.00</temp>
<bpm>0</bpm>
<rpm>0.00</rpm>
</extensions>
</trkpt>
<trkpt lat="31.020332336" lon="34.760459900">
<ele>325.3</ele>
<time>2013-11-19T12:56:19Z</time>
<speed>3.870000</speed>
<extensions>
<speed>3.9</speed>
<temp>0.00</temp>
<bpm>0</bpm>
<rpm>0.00</rpm>
</extensions>
</trkpt>
<trkpt lat="31.020214081" lon="34.761974335">
<ele>327.8</ele>
<time>2013-11-19T12:56:59Z</time>
<speed>3.690000</speed>
<extensions>
<speed>3.7</speed>
<temp>0.00</temp>
<bpm>0</bpm>
<rpm>0.00</rpm>
</extensions>
</trkpt>
<trkpt lat="31.019615173" lon="34.763683319">
<ele>330.6</ele>
<time>2013-11-19T12:57:49Z</time>
<speed>3.770000</speed>
<extensions>
<speed>3.8</speed>
<temp>0.00</temp>
<bpm>0</bpm>
<rpm>0.00</rpm>
</extensions>
</trkpt>
<trkpt lat="31.018917084" lon="34.767677307">
<ele>335.9</ele>
<time>2013-11-19T13:00:14Z</time>
<speed>0.710000</speed>
<extensions>
<speed>0.7</speed>
<temp>0.00</temp>
<bpm>0</bpm>
<rpm>0.00</rpm>
</extensions>
</trkpt>
<trkpt lat="31.019546509" lon="34.763977051">
<ele>330.8</ele>
<time>2013-11-19T13:01:44Z</time>
<speed>4.760000</speed>
<extensions>
<speed>4.8</speed>
<temp>0.00</temp>
<bpm>0</bpm>
<rpm>0.00</rpm>
</extensions>
</trkpt>
<trkpt lat="31.020179749" lon="34.761932373">
<ele>328.1</ele>
<time>2013-11-19T13:02:34Z</time>
<speed>4.280000</speed>
<extensions>
<speed>4.3</speed>
<temp>0.00</temp>
<bpm>0</bpm>
<rpm>0.00</rpm>
</extensions>
</trkpt>
<trkpt lat="31.020299911" lon="34.760452271">
<ele>325.5</ele>
<time>2013-11-19T13:03:04Z</time>
<speed>5.270000</speed>
<extensions>
<speed>5.3</speed>
<temp>0.00</temp>
<bpm>0</bpm>
<rpm>0.00</rpm>
</extensions>
</trkpt>
<trkpt lat="31.020046234" lon="34.759170532">
<ele>323.2</ele>
<time>2013-11-19T13:03:29Z</time>
<speed>5.510000</speed>
<extensions>
<speed>5.5</speed>
<temp>0.00</temp>
<bpm>0</bpm>
<rpm>0.00</rpm>
</extensions>
</trkpt>
<trkpt lat="31.019023895" lon="34.757183075">
<ele>317.3</ele>
<time>2013-11-19T13:04:09Z</time>
<speed>4.190000</speed>
<extensions>
<speed>4.2</speed>
<temp>0.00</temp>
<bpm>0</bpm>
<rpm>0.00</rpm>
</extensions>
</trkpt>
<trkpt lat="31.019027710" lon="34.756923676">
<ele>316.6</ele>
<time>2013-11-19T13:04:14Z</time>
<speed>5.130000</speed>
<extensions>
<speed>5.1</speed>
<temp>0.00</temp>
<bpm>0</bpm>
<rpm>0.00</rpm>
</extensions>
</trkpt>
<trkpt lat="31.025005341" lon="34.751895905">
<ele>314.6</ele>
<time>2013-11-19T13:06:54Z</time>
<speed>6.240000</speed>
<extensions>
<speed>6.2</speed>
<temp>0.00</temp>
<bpm>0</bpm>
<rpm>0.00</rpm>
</extensions>
</trkpt>
<trkpt lat="31.026754379" lon="34.750713348">
<ele>313.9</ele>
<time>2013-11-19T13:07:39Z</time>
<speed>4.240000</speed>
<extensions>
<speed>4.2</speed>
<temp>0.00</temp>
<bpm>0</bpm>
<rpm>0.00</rpm>
</extensions>
</trkpt>
<trkpt lat="31.034709930" lon="34.749519348">
<ele>313.8</ele>
<time>2013-11-19T13:10:44Z</time>
<speed>5.640000</speed>
<extensions>
<speed>5.6</speed>
<temp>0.00</temp>
<bpm>0</bpm>
<rpm>0.00</rpm>
</extensions>
</trkpt>
<trkpt lat="31.035474777" lon="34.749214172">
<ele>310.7</ele>
<time>2013-11-19T13:10:59Z</time>
<speed>5.950000</speed>
<extensions>
<speed>6.0</speed>
<temp>0.00</temp>
<bpm>0</bpm>
<rpm>0.00</rpm>
</extensions>
</trkpt>
<trkpt lat="31.036357880" lon="34.748527527">
<ele>308.0</ele>
<time>2013-11-19T13:11:19Z</time>
<speed>6.270000</speed>
<extensions>
<speed>6.3</speed>
<temp>0.00</temp>
<bpm>0</bpm>
<rpm>0.00</rpm>
</extensions>
</trkpt>
<trkpt lat="31.037284851" lon="34.747146606">
<ele>310.5</ele>
<time>2013-11-19T13:11:49Z</time>
<speed>5.050000</speed>
<extensions>
<speed>5.1</speed>
<temp>0.00</temp>
<bpm>0</bpm>
<rpm>0.00</rpm>
</extensions>
</trkpt>
<trkpt lat="31.042921066" lon="34.734672546">
<ele>294.1</ele>
<time>2013-11-19T13:16:14Z</time>
<speed>5.680000</speed>
<extensions>
<speed>5.7</speed>
<temp>0.00</temp>
<bpm>0</bpm>
<rpm>0.00</rpm>
</extensions>
</trkpt>
<trkpt lat="31.043691635" lon="34.733791351">
<ele>297.2</ele>
<time>2013-11-19T13:16:39Z</time>
<speed>5.540000</speed>
<extensions>
<speed>5.5</speed>
<temp>0.00</temp>
<bpm>0</bpm>
<rpm>0.00</rpm>
</extensions>
</trkpt>
<trkpt lat="31.046205521" lon="34.732261658">
<ele>290.1</ele>
<time>2013-11-19T13:17:34Z</time>
<speed>6.130000</speed>
<extensions>
<speed>6.1</speed>
<temp>0.00</temp>
<bpm>0</bpm>
<rpm>0.00</rpm>
</extensions>
</trkpt>
<trkpt lat="31.047119141" lon="34.731529236">
<ele>288.1</ele>
<time>2013-11-19T13:17:54Z</time>
<speed>6.400000</speed>
<extensions>
<speed>6.4</speed>
<temp>0.00</temp>
<bpm>0</bpm>
<rpm>0.00</rpm>
</extensions>
</trkpt>
<trkpt lat="31.049758911" lon="34.728809357">
<ele>279.4</ele>
<time>2013-11-19T13:18:54Z</time>
<speed>5.150000</speed>
<extensions>
<speed>5.2</speed>
<temp>0.00</temp>
<bpm>0</bpm>
<rpm>0.00</rpm>
</extensions>
</trkpt>
<trkpt lat="31.050710678" lon="34.727611542">
<ele>275.6</ele>
<time>2013-11-19T13:19:24Z</time>
<speed>3.550000</speed>
<extensions>
<speed>3.5</speed>
<temp>0.00</temp>
<bpm>0</bpm>
<rpm>0.00</rpm>
</extensions>
</trkpt>
<trkpt lat="31.050798416" lon="34.727321625">
<ele>275.2</ele>
<time>2013-11-19T13:19:34Z</time>
<speed>3.260000</speed>
<extensions>
<speed>3.3</speed>
<temp>0.00</temp>
<bpm>0</bpm>
<rpm>0.00</rpm>
</extensions>
</trkpt>
<trkpt lat="31.047681808" lon="34.724262238">
<ele>279.2</ele>
<time>2013-11-19T13:21:29Z</time>
<speed>2.170000</speed>
<extensions>
<speed>2.2</speed>
<temp>0.00</temp>
<bpm>0</bpm>
<rpm>0.00</rpm>
</extensions>
</trkpt>
<trkpt lat="31.046689987" lon="34.723865509">
<ele>282.6</ele>
<time>2013-11-19T13:22:19Z</time>
<speed>3.560000</speed>
<extensions>
<speed>3.6</speed>
<temp>0.00</temp>
<bpm>0</bpm>
<rpm>0.00</rpm>
</extensions>
</trkpt>
<trkpt lat="31.046060562" lon="34.723918915">
<ele>280.9</ele>
<time>2013-11-19T13:22:39Z</time>
<speed>4.030000</speed>
<extensions>
<speed>4.0</speed>
<temp>0.00</temp>
<bpm>0</bpm>
<rpm>0.00</rpm>
</extensions>
</trkpt>
<trkpt lat="31.044824600" lon="34.724376678">
<ele>282.3</ele>
<time>2013-11-19T13:23:24Z</time>
<speed>3.270000</speed>
<extensions>
<speed>3.3</speed>
<temp>0.00</temp>
<bpm>0</bpm>
<rpm>0.00</rpm>
</extensions>
</trkpt>
<trkpt lat="31.043764114" lon="34.724182129">
<ele>283.0</ele>
<time>2013-11-19T13:24:09Z</time>
<speed>2.840000</speed>
<extensions>
<speed>2.8</speed>
<temp>0.00</temp>
<bpm>0</bpm>
<rpm>0.00</rpm>
</extensions>
</trkpt>
<trkpt lat="31.042055130" lon="34.723312378">
<ele>288.4</ele>
<time>2013-11-19T13:25:14Z</time>
<speed>2.920000</speed>
<extensions>
<speed>2.9</speed>
<temp>0.00</temp>
<bpm>0</bpm>
<rpm>0.00</rpm>
</extensions>
</trkpt>
<trkpt lat="31.040943146" lon="34.721508026">
<ele>283.6</ele>
<time>2013-11-19T13:26:39Z</time>
<speed>1.390000</speed>
<extensions>
<speed>1.4</speed>
<temp>0.00</temp>
<bpm>0</bpm>
<rpm>0.00</rpm>
</extensions>
</trkpt>
<trkpt lat="31.042083740" lon="34.723358154">
<ele>288.5</ele>
<time>2013-11-19T13:27:39Z</time>
<speed>4.330000</speed>
<extensions>
<speed>4.3</speed>
<temp>0.00</temp>
<bpm>0</bpm>
<rpm>0.00</rpm>
</extensions>
</trkpt>
<trkpt lat="31.043714523" lon="34.724227905">
<ele>283.0</ele>
<time>2013-11-19T13:28:29Z</time>
<speed>3.780000</speed>
<extensions>
<speed>3.8</speed>
<temp>0.00</temp>
<bpm>0</bpm>
<rpm>0.00</rpm>
</extensions>
</trkpt>
<trkpt lat="31.044691086" lon="34.724464417">
<ele>282.3</ele>
<time>2013-11-19T13:29:04Z</time>
<speed>1.870000</speed>
<extensions>
<speed>1.9</speed>
<temp>0.00</temp>
<bpm>0</bpm>
<rpm>0.00</rpm>
</extensions>
</trkpt>
<trkpt lat="31.043674469" lon="34.724132538">
<ele>283.2</ele>
<time>2013-11-19T13:29:39Z</time>
<speed>3.370000</speed>
<extensions>
<speed>3.4</speed>
<temp>0.00</temp>
<bpm>0</bpm>
<rpm>0.00</rpm>
</extensions>
</trkpt>
<trkpt lat="31.042007446" lon="34.723205566">
<ele>288.3</ele>
<time>2013-11-19T13:30:34Z</time>
<speed>3.840000</speed>
<extensions>
<speed>3.8</speed>
<temp>0.00</temp>
<bpm>0</bpm>
<rpm>0.00</rpm>
</extensions>
</trkpt>
<trkpt lat="31.040576935" lon="34.720958710">
<ele>284.2</ele>
<time>2013-11-19T13:31:24Z</time>
<speed>3.490000</speed>
<extensions>
<speed>3.5</speed>
<temp>0.00</temp>
<bpm>0</bpm>
<rpm>0.00</rpm>
</extensions>
</trkpt>
<trkpt lat="31.041048050" lon="34.720211029">
<ele>283.3</ele>
<time>2013-11-19T13:31:59Z</time>
<speed>0.010000</speed>
<extensions>
<speed>0.0</speed>
<temp>0.00</temp>
<bpm>0</bpm>
<rpm>0.00</rpm>
</extensions>
</trkpt>
<trkpt lat="31.041324615" lon="34.720390320">
<ele>283.2</ele>
<time>2013-11-19T13:33:14Z</time>
<speed>0.310000</speed>
<extensions>
<speed>0.3</speed>
<temp>0.00</temp>
<bpm>0</bpm>
<rpm>0.00</rpm>
</extensions>
</trkpt>
<trkpt lat="31.041254044" lon="34.720199585">
<ele>283.6</ele>
<time>2013-11-19T13:59:49Z</time>
<extensions>
<speed>0.0</speed>
<temp>0.00</temp>
<bpm>0</bpm>
<rpm>0.00</rpm>
</extensions>
</trkpt>
</trkseg>
</trk>
</gpx>